<?xml version="1.0" encoding="UTF-8" standalone="no" ?>
<gpx xmlns="http://www.topografix.com/GPX/1/1" xmlns:xsi="http://www.w3.org/2001/XMLSchema-instance" xsi:schemaLocation="http://www.topografix.com/GPX/1/1 http://www.topografix.com/GPX/1/1/gpx.xsd" version="1.1" creator="VisuGPX - https://www.visugpx.com">
  <metadata>
    <name>Sortie du 27 février 2025</name>
    <desc><![CDATA[Plérin - Plouisy]]></desc>
  </metadata>
  <trk>
    <name><![CDATA[
    ]]></name>
    <trkseg>
      <trkpt lat="48.53292" lon="-2.76294">
        <ele>106.5</ele>
        <time>2025-02-27T10:44:20.000Z</time>
      </trkpt>
      <trkpt lat="48.53292" lon="-2.76293">
        <ele>106.5</ele>
        <time>2025-02-27T10:44:22.000Z</time>
      </trkpt>
      <trkpt lat="48.53291" lon="-2.76287">
        <ele>106.5</ele>
        <time>2025-02-27T10:44:26.000Z</time>
      </trkpt>
      <trkpt lat="48.53291" lon="-2.76277">
        <ele>106.5</ele>
        <time>2025-02-27T10:44:30.000Z</time>
      </trkpt>
      <trkpt lat="48.53291" lon="-2.76271">
        <ele>106.4</ele>
        <time>2025-02-27T10:44:32.000Z</time>
      </trkpt>
      <trkpt lat="48.53289" lon="-2.76266">
        <ele>106.2</ele>
        <time>2025-02-27T10:44:34.000Z</time>
      </trkpt>
      <trkpt lat="48.53284" lon="-2.76263">
        <ele>106.1</ele>
        <time>2025-02-27T10:44:36.000Z</time>
      </trkpt>
      <trkpt lat="48.53278" lon="-2.7626">
        <ele>106</ele>
        <time>2025-02-27T10:44:38.000Z</time>
      </trkpt>
      <trkpt lat="48.53272" lon="-2.76259">
        <ele>106</ele>
        <time>2025-02-27T10:44:40.000Z</time>
      </trkpt>
      <trkpt lat="48.5325" lon="-2.76264">
        <ele>106</ele>
        <time>2025-02-27T10:44:48.000Z</time>
      </trkpt>
      <trkpt lat="48.53245" lon="-2.76281">
        <ele>105.8</ele>
        <time>2025-02-27T10:44:54.000Z</time>
      </trkpt>
      <trkpt lat="48.53268" lon="-2.76362">
        <ele>177.8</ele>
        <time>2025-02-27T10:45:11.000Z</time>
      </trkpt>
      <trkpt lat="48.53275" lon="-2.76388">
        <ele>178.6</ele>
        <time>2025-02-27T10:45:16.000Z</time>
      </trkpt>
      <trkpt lat="48.53293" lon="-2.76426">
        <ele>179.2</ele>
        <time>2025-02-27T10:45:23.000Z</time>
      </trkpt>
      <trkpt lat="48.53298" lon="-2.76436">
        <ele>179.4</ele>
        <time>2025-02-27T10:45:25.000Z</time>
      </trkpt>
      <trkpt lat="48.53334" lon="-2.76485">
        <ele>180</ele>
        <time>2025-02-27T10:45:36.000Z</time>
      </trkpt>
      <trkpt lat="48.53342" lon="-2.76491">
        <ele>180.2</ele>
        <time>2025-02-27T10:45:38.000Z</time>
      </trkpt>
      <trkpt lat="48.53398" lon="-2.76537">
        <ele>180.4</ele>
        <time>2025-02-27T10:45:55.000Z</time>
      </trkpt>
      <trkpt lat="48.53426" lon="-2.76551">
        <ele>180.2</ele>
        <time>2025-02-27T10:46:06.000Z</time>
      </trkpt>
      <trkpt lat="48.53436" lon="-2.76613">
        <ele>180.6</ele>
        <time>2025-02-27T10:46:21.000Z</time>
      </trkpt>
      <trkpt lat="48.53445" lon="-2.76666">
        <ele>181</ele>
        <time>2025-02-27T10:46:30.000Z</time>
      </trkpt>
      <trkpt lat="48.53488" lon="-2.76683">
        <ele>181.8</ele>
        <time>2025-02-27T10:46:41.000Z</time>
      </trkpt>
      <trkpt lat="48.53519" lon="-2.7669">
        <ele>182.4</ele>
        <time>2025-02-27T10:46:50.000Z</time>
      </trkpt>
      <trkpt lat="48.53522" lon="-2.7671">
        <ele>182.8</ele>
        <time>2025-02-27T10:46:55.000Z</time>
      </trkpt>
      <trkpt lat="48.53518" lon="-2.76747">
        <ele>182.8</ele>
        <time>2025-02-27T10:47:04.000Z</time>
      </trkpt>
      <trkpt lat="48.53543" lon="-2.76751">
        <ele>182.6</ele>
        <time>2025-02-27T10:47:11.000Z</time>
      </trkpt>
      <trkpt lat="48.53603" lon="-2.76743">
        <ele>182.2</ele>
        <time>2025-02-27T10:47:25.000Z</time>
      </trkpt>
      <trkpt lat="48.53658" lon="-2.76739">
        <ele>182.8</ele>
        <time>2025-02-27T10:47:40.000Z</time>
      </trkpt>
      <trkpt lat="48.53714" lon="-2.76734">
        <ele>182.4</ele>
        <time>2025-02-27T10:47:56.000Z</time>
      </trkpt>
      <trkpt lat="48.53734" lon="-2.76755">
        <ele>182.2</ele>
        <time>2025-02-27T10:48:03.000Z</time>
      </trkpt>
      <trkpt lat="48.53745" lon="-2.76777">
        <ele>182.2</ele>
        <time>2025-02-27T10:48:07.000Z</time>
      </trkpt>
      <trkpt lat="48.53769" lon="-2.76811">
        <ele>181.8</ele>
        <time>2025-02-27T10:48:19.000Z</time>
      </trkpt>
      <trkpt lat="48.53811" lon="-2.76787">
        <ele>181.8</ele>
        <time>2025-02-27T10:48:29.000Z</time>
      </trkpt>
      <trkpt lat="48.5382" lon="-2.76782">
        <ele>181.8</ele>
        <time>2025-02-27T10:48:31.000Z</time>
      </trkpt>
      <trkpt lat="48.53859" lon="-2.76764">
        <ele>181.4</ele>
        <time>2025-02-27T10:48:40.000Z</time>
      </trkpt>
      <trkpt lat="48.53874" lon="-2.76768">
        <ele>181.4</ele>
        <time>2025-02-27T10:48:44.000Z</time>
      </trkpt>
      <trkpt lat="48.53898" lon="-2.76843">
        <ele>181</ele>
        <time>2025-02-27T10:48:56.000Z</time>
      </trkpt>
      <trkpt lat="48.539" lon="-2.76871">
        <ele>180.8</ele>
        <time>2025-02-27T10:49:04.000Z</time>
      </trkpt>
      <trkpt lat="48.53888" lon="-2.76874">
        <ele>180.6</ele>
        <time>2025-02-27T10:49:10.000Z</time>
      </trkpt>
      <trkpt lat="48.5392" lon="-2.76865">
        <ele>180.6</ele>
        <time>2025-02-27T10:49:19.000Z</time>
      </trkpt>
      <trkpt lat="48.5396" lon="-2.76837">
        <ele>180.2</ele>
        <time>2025-02-27T10:49:33.000Z</time>
      </trkpt>
      <trkpt lat="48.53977" lon="-2.7688">
        <ele>180.2</ele>
        <time>2025-02-27T10:49:44.000Z</time>
      </trkpt>
      <trkpt lat="48.54001" lon="-2.76979">
        <ele>180.6</ele>
        <time>2025-02-27T10:50:00.000Z</time>
      </trkpt>
      <trkpt lat="48.54022" lon="-2.77079">
        <ele>180</ele>
        <time>2025-02-27T10:50:16.000Z</time>
      </trkpt>
      <trkpt lat="48.54034" lon="-2.77118">
        <ele>179.8</ele>
        <time>2025-02-27T10:50:22.000Z</time>
      </trkpt>
      <trkpt lat="48.54044" lon="-2.77145">
        <ele>179.8</ele>
        <time>2025-02-27T10:50:26.000Z</time>
      </trkpt>
      <trkpt lat="48.54073" lon="-2.77235">
        <ele>179.6</ele>
        <time>2025-02-27T10:50:41.000Z</time>
      </trkpt>
      <trkpt lat="48.54089" lon="-2.77308">
        <ele>179.4</ele>
        <time>2025-02-27T10:50:54.000Z</time>
      </trkpt>
      <trkpt lat="48.54094" lon="-2.77373">
        <ele>179.2</ele>
        <time>2025-02-27T10:51:03.000Z</time>
      </trkpt>
      <trkpt lat="48.54096" lon="-2.77389">
        <ele>179.2</ele>
        <time>2025-02-27T10:51:05.000Z</time>
      </trkpt>
      <trkpt lat="48.54108" lon="-2.77451">
        <ele>179</ele>
        <time>2025-02-27T10:51:14.000Z</time>
      </trkpt>
      <trkpt lat="48.54136" lon="-2.77559">
        <ele>178.4</ele>
        <time>2025-02-27T10:51:30.000Z</time>
      </trkpt>
      <trkpt lat="48.54151" lon="-2.77611">
        <ele>178</ele>
        <time>2025-02-27T10:51:37.000Z</time>
      </trkpt>
      <trkpt lat="48.54171" lon="-2.7768">
        <ele>178</ele>
        <time>2025-02-27T10:51:47.000Z</time>
      </trkpt>
      <trkpt lat="48.54203" lon="-2.77794">
        <ele>178</ele>
        <time>2025-02-27T10:52:03.000Z</time>
      </trkpt>
      <trkpt lat="48.54223" lon="-2.77864">
        <ele>178.2</ele>
        <time>2025-02-27T10:52:12.000Z</time>
      </trkpt>
      <trkpt lat="48.5425" lon="-2.77947">
        <ele>178.4</ele>
        <time>2025-02-27T10:52:24.000Z</time>
      </trkpt>
      <trkpt lat="48.54277" lon="-2.78053">
        <ele>178.6</ele>
        <time>2025-02-27T10:52:39.000Z</time>
      </trkpt>
      <trkpt lat="48.543" lon="-2.78141">
        <ele>178.6</ele>
        <time>2025-02-27T10:52:52.000Z</time>
      </trkpt>
      <trkpt lat="48.54294" lon="-2.78221">
        <ele>178.8</ele>
        <time>2025-02-27T10:53:05.000Z</time>
      </trkpt>
      <trkpt lat="48.543" lon="-2.78257">
        <ele>178.8</ele>
        <time>2025-02-27T10:53:11.000Z</time>
      </trkpt>
      <trkpt lat="48.54344" lon="-2.78331">
        <ele>180.4</ele>
        <time>2025-02-27T10:53:27.000Z</time>
      </trkpt>
      <trkpt lat="48.54364" lon="-2.78359">
        <ele>181.2</ele>
        <time>2025-02-27T10:53:38.000Z</time>
      </trkpt>
      <trkpt lat="48.54375" lon="-2.78376">
        <ele>181.8</ele>
        <time>2025-02-27T10:53:52.000Z</time>
      </trkpt>
      <trkpt lat="48.54394" lon="-2.78409">
        <ele>182.4</ele>
        <time>2025-02-27T10:54:01.000Z</time>
      </trkpt>
      <trkpt lat="48.54433" lon="-2.78483">
        <ele>184.4</ele>
        <time>2025-02-27T10:54:17.000Z</time>
      </trkpt>
      <trkpt lat="48.5447" lon="-2.78549">
        <ele>186</ele>
        <time>2025-02-27T10:54:33.000Z</time>
      </trkpt>
      <trkpt lat="48.54472" lon="-2.78573">
        <ele>186.6</ele>
        <time>2025-02-27T10:54:44.000Z</time>
      </trkpt>
      <trkpt lat="48.54439" lon="-2.78624">
        <ele>187.2</ele>
        <time>2025-02-27T10:54:58.000Z</time>
      </trkpt>
      <trkpt lat="48.54414" lon="-2.78706">
        <ele>188.8</ele>
        <time>2025-02-27T10:55:10.000Z</time>
      </trkpt>
      <trkpt lat="48.54417" lon="-2.78802">
        <ele>189</ele>
        <time>2025-02-27T10:55:22.000Z</time>
      </trkpt>
      <trkpt lat="48.54427" lon="-2.78882">
        <ele>188</ele>
        <time>2025-02-27T10:55:33.000Z</time>
      </trkpt>
      <trkpt lat="48.54428" lon="-2.789">
        <ele>187.8</ele>
        <time>2025-02-27T10:55:35.000Z</time>
      </trkpt>
      <trkpt lat="48.5443" lon="-2.78919">
        <ele>187.4</ele>
        <time>2025-02-27T10:55:37.000Z</time>
      </trkpt>
      <trkpt lat="48.54432" lon="-2.78939">
        <ele>187</ele>
        <time>2025-02-27T10:55:39.000Z</time>
      </trkpt>
      <trkpt lat="48.54436" lon="-2.7896">
        <ele>186.6</ele>
        <time>2025-02-27T10:55:41.000Z</time>
      </trkpt>
      <trkpt lat="48.54439" lon="-2.78982">
        <ele>186.2</ele>
        <time>2025-02-27T10:55:43.000Z</time>
      </trkpt>
      <trkpt lat="48.54446" lon="-2.79057">
        <ele>185.8</ele>
        <time>2025-02-27T10:55:50.000Z</time>
      </trkpt>
      <trkpt lat="48.54438" lon="-2.79146">
        <ele>186.4</ele>
        <time>2025-02-27T10:55:59.000Z</time>
      </trkpt>
      <trkpt lat="48.54401" lon="-2.79246">
        <ele>187.4</ele>
        <time>2025-02-27T10:56:12.000Z</time>
      </trkpt>
      <trkpt lat="48.54376" lon="-2.79355">
        <ele>189.4</ele>
        <time>2025-02-27T10:56:28.000Z</time>
      </trkpt>
      <trkpt lat="48.54353" lon="-2.79453">
        <ele>191.6</ele>
        <time>2025-02-27T10:56:44.000Z</time>
      </trkpt>
      <trkpt lat="48.54326" lon="-2.79542">
        <ele>193.4</ele>
        <time>2025-02-27T10:57:00.000Z</time>
      </trkpt>
      <trkpt lat="48.54301" lon="-2.79628">
        <ele>195.2</ele>
        <time>2025-02-27T10:57:16.000Z</time>
      </trkpt>
      <trkpt lat="48.54278" lon="-2.79712">
        <ele>196.6</ele>
        <time>2025-02-27T10:57:32.000Z</time>
      </trkpt>
      <trkpt lat="48.54267" lon="-2.79807">
        <ele>197.6</ele>
        <time>2025-02-27T10:57:49.000Z</time>
      </trkpt>
      <trkpt lat="48.54265" lon="-2.79908">
        <ele>198.6</ele>
        <time>2025-02-27T10:58:05.000Z</time>
      </trkpt>
      <trkpt lat="48.54241" lon="-2.79994">
        <ele>199</ele>
        <time>2025-02-27T10:58:19.000Z</time>
      </trkpt>
      <trkpt lat="48.54208" lon="-2.80095">
        <ele>199.4</ele>
        <time>2025-02-27T10:58:35.000Z</time>
      </trkpt>
      <trkpt lat="48.54175" lon="-2.802">
        <ele>200</ele>
        <time>2025-02-27T10:58:51.000Z</time>
      </trkpt>
      <trkpt lat="48.54137" lon="-2.80305">
        <ele>200.6</ele>
        <time>2025-02-27T10:59:07.000Z</time>
      </trkpt>
      <trkpt lat="48.54091" lon="-2.8041">
        <ele>201.2</ele>
        <time>2025-02-27T10:59:23.000Z</time>
      </trkpt>
      <trkpt lat="48.5406" lon="-2.80503">
        <ele>201.8</ele>
        <time>2025-02-27T10:59:37.000Z</time>
      </trkpt>
      <trkpt lat="48.54055" lon="-2.80589">
        <ele>202.8</ele>
        <time>2025-02-27T10:59:49.000Z</time>
      </trkpt>
      <trkpt lat="48.54069" lon="-2.80697">
        <ele>204.2</ele>
        <time>2025-02-27T11:00:05.000Z</time>
      </trkpt>
      <trkpt lat="48.5408" lon="-2.80806">
        <ele>204.2</ele>
        <time>2025-02-27T11:00:22.000Z</time>
      </trkpt>
      <trkpt lat="48.54093" lon="-2.80915">
        <ele>205.2</ele>
        <time>2025-02-27T11:00:38.000Z</time>
      </trkpt>
      <trkpt lat="48.54106" lon="-2.81031">
        <ele>205.4</ele>
        <time>2025-02-27T11:00:54.000Z</time>
      </trkpt>
      <trkpt lat="48.54111" lon="-2.81147">
        <ele>206.2</ele>
        <time>2025-02-27T11:01:10.000Z</time>
      </trkpt>
      <trkpt lat="48.54113" lon="-2.81278">
        <ele>205.8</ele>
        <time>2025-02-27T11:01:26.000Z</time>
      </trkpt>
      <trkpt lat="48.54119" lon="-2.81419">
        <ele>205.2</ele>
        <time>2025-02-27T11:01:42.000Z</time>
      </trkpt>
      <trkpt lat="48.54127" lon="-2.81561">
        <ele>204.2</ele>
        <time>2025-02-27T11:01:58.000Z</time>
      </trkpt>
      <trkpt lat="48.54131" lon="-2.81716">
        <ele>202.4</ele>
        <time>2025-02-27T11:02:14.000Z</time>
      </trkpt>
      <trkpt lat="48.54135" lon="-2.8186">
        <ele>202.2</ele>
        <time>2025-02-27T11:02:30.000Z</time>
      </trkpt>
      <trkpt lat="48.54131" lon="-2.81996">
        <ele>201.4</ele>
        <time>2025-02-27T11:02:47.000Z</time>
      </trkpt>
      <trkpt lat="48.54129" lon="-2.82128">
        <ele>200.2</ele>
        <time>2025-02-27T11:03:01.000Z</time>
      </trkpt>
      <trkpt lat="48.54151" lon="-2.82275">
        <ele>197.8</ele>
        <time>2025-02-27T11:03:15.000Z</time>
      </trkpt>
      <trkpt lat="48.5416" lon="-2.82416">
        <ele>199.2</ele>
        <time>2025-02-27T11:03:29.000Z</time>
      </trkpt>
      <trkpt lat="48.54147" lon="-2.82515">
        <ele>201</ele>
        <time>2025-02-27T11:03:43.000Z</time>
      </trkpt>
      <trkpt lat="48.54129" lon="-2.82621">
        <ele>201.6</ele>
        <time>2025-02-27T11:03:59.000Z</time>
      </trkpt>
      <trkpt lat="48.54123" lon="-2.82726">
        <ele>202.6</ele>
        <time>2025-02-27T11:04:15.000Z</time>
      </trkpt>
      <trkpt lat="48.54119" lon="-2.82842">
        <ele>203.2</ele>
        <time>2025-02-27T11:04:31.000Z</time>
      </trkpt>
      <trkpt lat="48.5411" lon="-2.82892">
        <ele>203.8</ele>
        <time>2025-02-27T11:04:39.000Z</time>
      </trkpt>
      <trkpt lat="48.54066" lon="-2.82987">
        <ele>204.6</ele>
        <time>2025-02-27T11:04:55.000Z</time>
      </trkpt>
      <trkpt lat="48.54025" lon="-2.83077">
        <ele>205.4</ele>
        <time>2025-02-27T11:05:12.000Z</time>
      </trkpt>
      <trkpt lat="48.53988" lon="-2.83186">
        <ele>206.2</ele>
        <time>2025-02-27T11:05:28.000Z</time>
      </trkpt>
      <trkpt lat="48.53946" lon="-2.8332">
        <ele>205.2</ele>
        <time>2025-02-27T11:05:44.000Z</time>
      </trkpt>
      <trkpt lat="48.53896" lon="-2.83445">
        <ele>205.8</ele>
        <time>2025-02-27T11:06:00.000Z</time>
      </trkpt>
      <trkpt lat="48.5385" lon="-2.83559">
        <ele>206.6</ele>
        <time>2025-02-27T11:06:16.000Z</time>
      </trkpt>
      <trkpt lat="48.5382" lon="-2.83677">
        <ele>207.2</ele>
        <time>2025-02-27T11:06:30.000Z</time>
      </trkpt>
      <trkpt lat="48.53791" lon="-2.83762">
        <ele>207.6</ele>
        <time>2025-02-27T11:06:42.000Z</time>
      </trkpt>
      <trkpt lat="48.53742" lon="-2.83864">
        <ele>208.2</ele>
        <time>2025-02-27T11:06:58.000Z</time>
      </trkpt>
      <trkpt lat="48.53693" lon="-2.83953">
        <ele>209</ele>
        <time>2025-02-27T11:07:14.000Z</time>
      </trkpt>
      <trkpt lat="48.53644" lon="-2.84048">
        <ele>208.2</ele>
        <time>2025-02-27T11:07:30.000Z</time>
      </trkpt>
      <trkpt lat="48.53603" lon="-2.84172">
        <ele>207.8</ele>
        <time>2025-02-27T11:07:46.000Z</time>
      </trkpt>
      <trkpt lat="48.53557" lon="-2.84302">
        <ele>207.6</ele>
        <time>2025-02-27T11:08:02.000Z</time>
      </trkpt>
      <trkpt lat="48.53511" lon="-2.84422">
        <ele>208.2</ele>
        <time>2025-02-27T11:08:17.000Z</time>
      </trkpt>
      <trkpt lat="48.53476" lon="-2.84533">
        <ele>209.6</ele>
        <time>2025-02-27T11:08:33.000Z</time>
      </trkpt>
      <trkpt lat="48.5343" lon="-2.8463">
        <ele>208.4</ele>
        <time>2025-02-27T11:08:49.000Z</time>
      </trkpt>
      <trkpt lat="48.53362" lon="-2.84748">
        <ele>207.2</ele>
        <time>2025-02-27T11:09:05.000Z</time>
      </trkpt>
      <trkpt lat="48.533" lon="-2.84855">
        <ele>207</ele>
        <time>2025-02-27T11:09:21.000Z</time>
      </trkpt>
      <trkpt lat="48.53249" lon="-2.84954">
        <ele>208.6</ele>
        <time>2025-02-27T11:09:36.000Z</time>
      </trkpt>
      <trkpt lat="48.53193" lon="-2.85008">
        <ele>210</ele>
        <time>2025-02-27T11:09:51.000Z</time>
      </trkpt>
      <trkpt lat="48.53142" lon="-2.85055">
        <ele>210</ele>
        <time>2025-02-27T11:10:07.000Z</time>
      </trkpt>
      <trkpt lat="48.53121" lon="-2.85089">
        <ele>209.8</ele>
        <time>2025-02-27T11:10:14.000Z</time>
      </trkpt>
      <trkpt lat="48.53097" lon="-2.85182">
        <ele>210.6</ele>
        <time>2025-02-27T11:10:27.000Z</time>
      </trkpt>
      <trkpt lat="48.53066" lon="-2.85278">
        <ele>212.2</ele>
        <time>2025-02-27T11:10:41.000Z</time>
      </trkpt>
      <trkpt lat="48.53018" lon="-2.85367">
        <ele>213.4</ele>
        <time>2025-02-27T11:10:57.000Z</time>
      </trkpt>
      <trkpt lat="48.52967" lon="-2.85458">
        <ele>214.6</ele>
        <time>2025-02-27T11:11:13.000Z</time>
      </trkpt>
      <trkpt lat="48.52927" lon="-2.85542">
        <ele>216.2</ele>
        <time>2025-02-27T11:11:29.000Z</time>
      </trkpt>
      <trkpt lat="48.52904" lon="-2.85596">
        <ele>217</ele>
        <time>2025-02-27T11:11:40.000Z</time>
      </trkpt>
      <trkpt lat="48.5291" lon="-2.85628">
        <ele>217.2</ele>
        <time>2025-02-27T11:11:46.000Z</time>
      </trkpt>
      <trkpt lat="48.52961" lon="-2.85697">
        <ele>219.4</ele>
        <time>2025-02-27T11:12:02.000Z</time>
      </trkpt>
      <trkpt lat="48.53009" lon="-2.8576">
        <ele>221.6</ele>
        <time>2025-02-27T11:12:19.000Z</time>
      </trkpt>
      <trkpt lat="48.5306" lon="-2.85831">
        <ele>221</ele>
        <time>2025-02-27T11:12:35.000Z</time>
      </trkpt>
      <trkpt lat="48.53102" lon="-2.85885">
        <ele>219.4</ele>
        <time>2025-02-27T11:12:46.000Z</time>
      </trkpt>
      <trkpt lat="48.53099" lon="-2.85904">
        <ele>219.2</ele>
        <time>2025-02-27T11:12:50.000Z</time>
      </trkpt>
      <trkpt lat="48.5305" lon="-2.85951">
        <ele>216.4</ele>
        <time>2025-02-27T11:13:00.000Z</time>
      </trkpt>
      <trkpt lat="48.53034" lon="-2.86002">
        <ele>215.4</ele>
        <time>2025-02-27T11:13:05.000Z</time>
      </trkpt>
      <trkpt lat="48.53038" lon="-2.86115">
        <ele>215.2</ele>
        <time>2025-02-27T11:13:17.000Z</time>
      </trkpt>
      <trkpt lat="48.5306" lon="-2.86171">
        <ele>215.2</ele>
        <time>2025-02-27T11:13:24.000Z</time>
      </trkpt>
      <trkpt lat="48.53107" lon="-2.8625">
        <ele>215.2</ele>
        <time>2025-02-27T11:13:35.000Z</time>
      </trkpt>
      <trkpt lat="48.53116" lon="-2.86313">
        <ele>213.8</ele>
        <time>2025-02-27T11:13:42.000Z</time>
      </trkpt>
      <trkpt lat="48.5311" lon="-2.86461">
        <ele>211.2</ele>
        <time>2025-02-27T11:13:58.000Z</time>
      </trkpt>
      <trkpt lat="48.53101" lon="-2.86572">
        <ele>208</ele>
        <time>2025-02-27T11:14:08.000Z</time>
      </trkpt>
      <trkpt lat="48.53098" lon="-2.86595">
        <ele>207.2</ele>
        <time>2025-02-27T11:14:10.000Z</time>
      </trkpt>
      <trkpt lat="48.53096" lon="-2.8662">
        <ele>206.8</ele>
        <time>2025-02-27T11:14:12.000Z</time>
      </trkpt>
      <trkpt lat="48.53094" lon="-2.86645">
        <ele>206.2</ele>
        <time>2025-02-27T11:14:14.000Z</time>
      </trkpt>
      <trkpt lat="48.53091" lon="-2.8667">
        <ele>205.4</ele>
        <time>2025-02-27T11:14:16.000Z</time>
      </trkpt>
      <trkpt lat="48.53088" lon="-2.86697">
        <ele>204.6</ele>
        <time>2025-02-27T11:14:18.000Z</time>
      </trkpt>
      <trkpt lat="48.53076" lon="-2.86785">
        <ele>202.2</ele>
        <time>2025-02-27T11:14:25.000Z</time>
      </trkpt>
      <trkpt lat="48.5304" lon="-2.86955">
        <ele>199.2</ele>
        <time>2025-02-27T11:14:42.000Z</time>
      </trkpt>
      <trkpt lat="48.53043" lon="-2.86994">
        <ele>198.6</ele>
        <time>2025-02-27T11:14:46.000Z</time>
      </trkpt>
      <trkpt lat="48.53092" lon="-2.87071">
        <ele>197.6</ele>
        <time>2025-02-27T11:14:57.000Z</time>
      </trkpt>
      <trkpt lat="48.53131" lon="-2.87142">
        <ele>196.4</ele>
        <time>2025-02-27T11:15:08.000Z</time>
      </trkpt>
      <trkpt lat="48.53146" lon="-2.87203">
        <ele>195.6</ele>
        <time>2025-02-27T11:15:16.000Z</time>
      </trkpt>
      <trkpt lat="48.53207" lon="-2.87285">
        <ele>194</ele>
        <time>2025-02-27T11:15:29.000Z</time>
      </trkpt>
      <trkpt lat="48.53243" lon="-2.87305">
        <ele>193.8</ele>
        <time>2025-02-27T11:15:35.000Z</time>
      </trkpt>
      <trkpt lat="48.5334" lon="-2.87311">
        <ele>193.2</ele>
        <time>2025-02-27T11:15:51.000Z</time>
      </trkpt>
      <trkpt lat="48.53397" lon="-2.87354">
        <ele>192.8</ele>
        <time>2025-02-27T11:16:01.000Z</time>
      </trkpt>
      <trkpt lat="48.53415" lon="-2.87395">
        <ele>192.2</ele>
        <time>2025-02-27T11:16:07.000Z</time>
      </trkpt>
      <trkpt lat="48.53417" lon="-2.87472">
        <ele>191.2</ele>
        <time>2025-02-27T11:16:15.000Z</time>
      </trkpt>
      <trkpt lat="48.53441" lon="-2.87552">
        <ele>190.2</ele>
        <time>2025-02-27T11:16:24.000Z</time>
      </trkpt>
      <trkpt lat="48.53495" lon="-2.87642">
        <ele>188.8</ele>
        <time>2025-02-27T11:16:38.000Z</time>
      </trkpt>
      <trkpt lat="48.53543" lon="-2.87721">
        <ele>186.8</ele>
        <time>2025-02-27T11:16:54.000Z</time>
      </trkpt>
      <trkpt lat="48.53539" lon="-2.87751">
        <ele>186.4</ele>
        <time>2025-02-27T11:16:59.000Z</time>
      </trkpt>
      <trkpt lat="48.53518" lon="-2.87816">
        <ele>185.8</ele>
        <time>2025-02-27T11:17:06.000Z</time>
      </trkpt>
      <trkpt lat="48.53518" lon="-2.87877">
        <ele>187.4</ele>
        <time>2025-02-27T11:17:12.000Z</time>
      </trkpt>
      <trkpt lat="48.53522" lon="-2.87899">
        <ele>188.6</ele>
        <time>2025-02-27T11:17:15.000Z</time>
      </trkpt>
      <trkpt lat="48.53524" lon="-2.87912">
        <ele>189.4</ele>
        <time>2025-02-27T11:17:17.000Z</time>
      </trkpt>
      <trkpt lat="48.53528" lon="-2.87935">
        <ele>190.8</ele>
        <time>2025-02-27T11:17:21.000Z</time>
      </trkpt>
      <trkpt lat="48.53544" lon="-2.87982">
        <ele>193.6</ele>
        <time>2025-02-27T11:17:31.000Z</time>
      </trkpt>
      <trkpt lat="48.5357" lon="-2.88039">
        <ele>195.4</ele>
        <time>2025-02-27T11:17:45.000Z</time>
      </trkpt>
      <trkpt lat="48.53577" lon="-2.88137">
        <ele>195</ele>
        <time>2025-02-27T11:18:01.000Z</time>
      </trkpt>
      <trkpt lat="48.53596" lon="-2.88249">
        <ele>193.2</ele>
        <time>2025-02-27T11:18:13.000Z</time>
      </trkpt>
      <trkpt lat="48.53625" lon="-2.88301">
        <ele>194</ele>
        <time>2025-02-27T11:18:20.000Z</time>
      </trkpt>
      <trkpt lat="48.53677" lon="-2.88371">
        <ele>197.4</ele>
        <time>2025-02-27T11:18:36.000Z</time>
      </trkpt>
      <trkpt lat="48.53708" lon="-2.88432">
        <ele>199.6</ele>
        <time>2025-02-27T11:18:52.000Z</time>
      </trkpt>
      <trkpt lat="48.53735" lon="-2.88496">
        <ele>201</ele>
        <time>2025-02-27T11:19:08.000Z</time>
      </trkpt>
      <trkpt lat="48.53771" lon="-2.88541">
        <ele>202.2</ele>
        <time>2025-02-27T11:19:23.000Z</time>
      </trkpt>
      <trkpt lat="48.53808" lon="-2.88568">
        <ele>203.2</ele>
        <time>2025-02-27T11:19:36.000Z</time>
      </trkpt>
      <trkpt lat="48.5387" lon="-2.8857">
        <ele>203.2</ele>
        <time>2025-02-27T11:19:52.000Z</time>
      </trkpt>
      <trkpt lat="48.53938" lon="-2.88574">
        <ele>201.8</ele>
        <time>2025-02-27T11:20:07.000Z</time>
      </trkpt>
      <trkpt lat="48.54046" lon="-2.88605">
        <ele>194.6</ele>
        <time>2025-02-27T11:20:23.000Z</time>
      </trkpt>
      <trkpt lat="48.54092" lon="-2.88645">
        <ele>193.8</ele>
        <time>2025-02-27T11:20:30.000Z</time>
      </trkpt>
      <trkpt lat="48.54142" lon="-2.88703">
        <ele>193.4</ele>
        <time>2025-02-27T11:20:41.000Z</time>
      </trkpt>
      <trkpt lat="48.54193" lon="-2.88715">
        <ele>192.4</ele>
        <time>2025-02-27T11:20:50.000Z</time>
      </trkpt>
      <trkpt lat="48.54214" lon="-2.88738">
        <ele>192</ele>
        <time>2025-02-27T11:20:55.000Z</time>
      </trkpt>
      <trkpt lat="48.54256" lon="-2.88841">
        <ele>191</ele>
        <time>2025-02-27T11:21:11.000Z</time>
      </trkpt>
      <trkpt lat="48.5428" lon="-2.88861">
        <ele>190.2</ele>
        <time>2025-02-27T11:21:17.000Z</time>
      </trkpt>
      <trkpt lat="48.54339" lon="-2.88854">
        <ele>187.8</ele>
        <time>2025-02-27T11:21:28.000Z</time>
      </trkpt>
      <trkpt lat="48.54382" lon="-2.88893">
        <ele>186.2</ele>
        <time>2025-02-27T11:21:40.000Z</time>
      </trkpt>
      <trkpt lat="48.54422" lon="-2.88904">
        <ele>185</ele>
        <time>2025-02-27T11:21:49.000Z</time>
      </trkpt>
      <trkpt lat="48.54462" lon="-2.88907">
        <ele>184</ele>
        <time>2025-02-27T11:21:58.000Z</time>
      </trkpt>
      <trkpt lat="48.54488" lon="-2.88968">
        <ele>183.4</ele>
        <time>2025-02-27T11:22:10.000Z</time>
      </trkpt>
      <trkpt lat="48.54502" lon="-2.89026">
        <ele>183.8</ele>
        <time>2025-02-27T11:22:21.000Z</time>
      </trkpt>
      <trkpt lat="48.5453" lon="-2.89048">
        <ele>184.4</ele>
        <time>2025-02-27T11:22:28.000Z</time>
      </trkpt>
      <trkpt lat="48.54598" lon="-2.89071">
        <ele>186.8</ele>
        <time>2025-02-27T11:22:44.000Z</time>
      </trkpt>
      <trkpt lat="48.54656" lon="-2.89098">
        <ele>188.4</ele>
        <time>2025-02-27T11:23:00.000Z</time>
      </trkpt>
      <trkpt lat="48.54714" lon="-2.89142">
        <ele>189.6</ele>
        <time>2025-02-27T11:23:16.000Z</time>
      </trkpt>
      <trkpt lat="48.54767" lon="-2.89179">
        <ele>190.2</ele>
        <time>2025-02-27T11:23:32.000Z</time>
      </trkpt>
      <trkpt lat="48.54818" lon="-2.892">
        <ele>190.2</ele>
        <time>2025-02-27T11:23:45.000Z</time>
      </trkpt>
      <trkpt lat="48.54823" lon="-2.89221">
        <ele>190.4</ele>
        <time>2025-02-27T11:23:50.000Z</time>
      </trkpt>
      <trkpt lat="48.54807" lon="-2.89322">
        <ele>190.4</ele>
        <time>2025-02-27T11:24:06.000Z</time>
      </trkpt>
      <trkpt lat="48.54769" lon="-2.89422">
        <ele>189.4</ele>
        <time>2025-02-27T11:24:21.000Z</time>
      </trkpt>
      <trkpt lat="48.54726" lon="-2.89523">
        <ele>188.6</ele>
        <time>2025-02-27T11:24:35.000Z</time>
      </trkpt>
      <trkpt lat="48.54689" lon="-2.89653">
        <ele>187.2</ele>
        <time>2025-02-27T11:24:51.000Z</time>
      </trkpt>
      <trkpt lat="48.5464" lon="-2.89768">
        <ele>186.2</ele>
        <time>2025-02-27T11:25:07.000Z</time>
      </trkpt>
      <trkpt lat="48.54607" lon="-2.89853">
        <ele>185.2</ele>
        <time>2025-02-27T11:25:18.000Z</time>
      </trkpt>
      <trkpt lat="48.54586" lon="-2.9002">
        <ele>182.4</ele>
        <time>2025-02-27T11:25:34.000Z</time>
      </trkpt>
      <trkpt lat="48.54572" lon="-2.90206">
        <ele>182.6</ele>
        <time>2025-02-27T11:25:50.000Z</time>
      </trkpt>
      <trkpt lat="48.54561" lon="-2.90355">
        <ele>182</ele>
        <time>2025-02-27T11:26:06.000Z</time>
      </trkpt>
      <trkpt lat="48.5455" lon="-2.90506">
        <ele>181</ele>
        <time>2025-02-27T11:26:22.000Z</time>
      </trkpt>
      <trkpt lat="48.54526" lon="-2.90644">
        <ele>180.4</ele>
        <time>2025-02-27T11:26:39.000Z</time>
      </trkpt>
      <trkpt lat="48.54493" lon="-2.90759">
        <ele>179</ele>
        <time>2025-02-27T11:26:55.000Z</time>
      </trkpt>
      <trkpt lat="48.54491" lon="-2.90813">
        <ele>176.6</ele>
        <time>2025-02-27T11:27:01.000Z</time>
      </trkpt>
      <trkpt lat="48.54513" lon="-2.90852">
        <ele>175</ele>
        <time>2025-02-27T11:27:06.000Z</time>
      </trkpt>
      <trkpt lat="48.54583" lon="-2.9093">
        <ele>170.4</ele>
        <time>2025-02-27T11:27:18.000Z</time>
      </trkpt>
      <trkpt lat="48.54641" lon="-2.90973">
        <ele>166.2</ele>
        <time>2025-02-27T11:27:27.000Z</time>
      </trkpt>
      <trkpt lat="48.54699" lon="-2.91021">
        <ele>162</ele>
        <time>2025-02-27T11:27:36.000Z</time>
      </trkpt>
      <trkpt lat="48.5475" lon="-2.91089">
        <ele>157.6</ele>
        <time>2025-02-27T11:27:44.000Z</time>
      </trkpt>
      <trkpt lat="48.54761" lon="-2.91111">
        <ele>157</ele>
        <time>2025-02-27T11:27:46.000Z</time>
      </trkpt>
      <trkpt lat="48.54801" lon="-2.91196">
        <ele>159</ele>
        <time>2025-02-27T11:27:55.000Z</time>
      </trkpt>
      <trkpt lat="48.54812" lon="-2.91204">
        <ele>160.4</ele>
        <time>2025-02-27T11:27:58.000Z</time>
      </trkpt>
      <trkpt lat="48.54859" lon="-2.91234">
        <ele>166</ele>
        <time>2025-02-27T11:28:14.000Z</time>
      </trkpt>
      <trkpt lat="48.54878" lon="-2.91254">
        <ele>168.6</ele>
        <time>2025-02-27T11:28:23.000Z</time>
      </trkpt>
      <trkpt lat="48.54901" lon="-2.91291">
        <ele>172.2</ele>
        <time>2025-02-27T11:28:39.000Z</time>
      </trkpt>
      <trkpt lat="48.54917" lon="-2.91332">
        <ele>175</ele>
        <time>2025-02-27T11:28:56.000Z</time>
      </trkpt>
      <trkpt lat="48.54939" lon="-2.91386">
        <ele>176.2</ele>
        <time>2025-02-27T11:29:12.000Z</time>
      </trkpt>
      <trkpt lat="48.54972" lon="-2.91432">
        <ele>178.2</ele>
        <time>2025-02-27T11:29:28.000Z</time>
      </trkpt>
      <trkpt lat="48.55008" lon="-2.91479">
        <ele>179.4</ele>
        <time>2025-02-27T11:29:44.000Z</time>
      </trkpt>
      <trkpt lat="48.55046" lon="-2.9153">
        <ele>180.8</ele>
        <time>2025-02-27T11:30:00.000Z</time>
      </trkpt>
      <trkpt lat="48.55093" lon="-2.91592">
        <ele>182.4</ele>
        <time>2025-02-27T11:30:16.000Z</time>
      </trkpt>
      <trkpt lat="48.55137" lon="-2.91651">
        <ele>183</ele>
        <time>2025-02-27T11:30:32.000Z</time>
      </trkpt>
      <trkpt lat="48.55151" lon="-2.9169">
        <ele>183.2</ele>
        <time>2025-02-27T11:30:40.000Z</time>
      </trkpt>
      <trkpt lat="48.5514" lon="-2.91764">
        <ele>183.2</ele>
        <time>2025-02-27T11:30:52.000Z</time>
      </trkpt>
      <trkpt lat="48.55114" lon="-2.91863">
        <ele>183.4</ele>
        <time>2025-02-27T11:31:08.000Z</time>
      </trkpt>
      <trkpt lat="48.55086" lon="-2.91971">
        <ele>183.6</ele>
        <time>2025-02-27T11:31:25.000Z</time>
      </trkpt>
      <trkpt lat="48.55058" lon="-2.92083">
        <ele>183.4</ele>
        <time>2025-02-27T11:31:41.000Z</time>
      </trkpt>
      <trkpt lat="48.55025" lon="-2.9221">
        <ele>183.2</ele>
        <time>2025-02-27T11:31:57.000Z</time>
      </trkpt>
      <trkpt lat="48.55" lon="-2.92327">
        <ele>184</ele>
        <time>2025-02-27T11:32:12.000Z</time>
      </trkpt>
      <trkpt lat="48.55011" lon="-2.92425">
        <ele>184</ele>
        <time>2025-02-27T11:32:25.000Z</time>
      </trkpt>
      <trkpt lat="48.5501" lon="-2.9249">
        <ele>183.4</ele>
        <time>2025-02-27T11:32:33.000Z</time>
      </trkpt>
      <trkpt lat="48.54976" lon="-2.92651">
        <ele>180.2</ele>
        <time>2025-02-27T11:32:49.000Z</time>
      </trkpt>
      <trkpt lat="48.54942" lon="-2.92812">
        <ele>178.2</ele>
        <time>2025-02-27T11:33:04.000Z</time>
      </trkpt>
      <trkpt lat="48.54901" lon="-2.92919">
        <ele>181.8</ele>
        <time>2025-02-27T11:33:18.000Z</time>
      </trkpt>
      <trkpt lat="48.54873" lon="-2.92984">
        <ele>185.6</ele>
        <time>2025-02-27T11:33:35.000Z</time>
      </trkpt>
      <trkpt lat="48.54846" lon="-2.93063">
        <ele>187</ele>
        <time>2025-02-27T11:33:51.000Z</time>
      </trkpt>
      <trkpt lat="48.54832" lon="-2.93135">
        <ele>188.6</ele>
        <time>2025-02-27T11:34:07.000Z</time>
      </trkpt>
      <trkpt lat="48.54819" lon="-2.93213">
        <ele>189.8</ele>
        <time>2025-02-27T11:34:23.000Z</time>
      </trkpt>
      <trkpt lat="48.54807" lon="-2.93294">
        <ele>190.6</ele>
        <time>2025-02-27T11:34:39.000Z</time>
      </trkpt>
      <trkpt lat="48.54796" lon="-2.93386">
        <ele>191.2</ele>
        <time>2025-02-27T11:34:55.000Z</time>
      </trkpt>
      <trkpt lat="48.54788" lon="-2.93495">
        <ele>192.2</ele>
        <time>2025-02-27T11:35:11.000Z</time>
      </trkpt>
      <trkpt lat="48.54782" lon="-2.93591">
        <ele>194.8</ele>
        <time>2025-02-27T11:35:27.000Z</time>
      </trkpt>
      <trkpt lat="48.54773" lon="-2.9366">
        <ele>195.6</ele>
        <time>2025-02-27T11:35:43.000Z</time>
      </trkpt>
      <trkpt lat="48.54762" lon="-2.93731">
        <ele>196.6</ele>
        <time>2025-02-27T11:36:00.000Z</time>
      </trkpt>
      <trkpt lat="48.5475" lon="-2.93804">
        <ele>197.8</ele>
        <time>2025-02-27T11:36:16.000Z</time>
      </trkpt>
      <trkpt lat="48.54733" lon="-2.9388">
        <ele>199</ele>
        <time>2025-02-27T11:36:32.000Z</time>
      </trkpt>
      <trkpt lat="48.54708" lon="-2.93972">
        <ele>200</ele>
        <time>2025-02-27T11:36:48.000Z</time>
      </trkpt>
      <trkpt lat="48.54681" lon="-2.94063">
        <ele>200.6</ele>
        <time>2025-02-27T11:37:04.000Z</time>
      </trkpt>
      <trkpt lat="48.54655" lon="-2.9415">
        <ele>201.8</ele>
        <time>2025-02-27T11:37:20.000Z</time>
      </trkpt>
      <trkpt lat="48.54628" lon="-2.94238">
        <ele>203</ele>
        <time>2025-02-27T11:37:36.000Z</time>
      </trkpt>
      <trkpt lat="48.54608" lon="-2.94309">
        <ele>204.2</ele>
        <time>2025-02-27T11:37:52.000Z</time>
      </trkpt>
      <trkpt lat="48.54592" lon="-2.94395">
        <ele>205</ele>
        <time>2025-02-27T11:38:08.000Z</time>
      </trkpt>
      <trkpt lat="48.54581" lon="-2.94488">
        <ele>204.6</ele>
        <time>2025-02-27T11:38:25.000Z</time>
      </trkpt>
      <trkpt lat="48.54577" lon="-2.94532">
        <ele>204.6</ele>
        <time>2025-02-27T11:38:38.000Z</time>
      </trkpt>
      <trkpt lat="48.54567" lon="-2.94585">
        <ele>205.6</ele>
        <time>2025-02-27T11:38:59.000Z</time>
      </trkpt>
      <trkpt lat="48.54543" lon="-2.9467">
        <ele>206.6</ele>
        <time>2025-02-27T11:39:15.000Z</time>
      </trkpt>
      <trkpt lat="48.54516" lon="-2.94759">
        <ele>207</ele>
        <time>2025-02-27T11:39:31.000Z</time>
      </trkpt>
      <trkpt lat="48.545" lon="-2.94854">
        <ele>207.8</ele>
        <time>2025-02-27T11:39:47.000Z</time>
      </trkpt>
      <trkpt lat="48.5448" lon="-2.94957">
        <ele>207.2</ele>
        <time>2025-02-27T11:40:03.000Z</time>
      </trkpt>
      <trkpt lat="48.54425" lon="-2.95113">
        <ele>201.6</ele>
        <time>2025-02-27T11:40:19.000Z</time>
      </trkpt>
      <trkpt lat="48.54378" lon="-2.95258">
        <ele>200.8</ele>
        <time>2025-02-27T11:40:35.000Z</time>
      </trkpt>
      <trkpt lat="48.54368" lon="-2.95335">
        <ele>201.6</ele>
        <time>2025-02-27T11:40:47.000Z</time>
      </trkpt>
      <trkpt lat="48.54383" lon="-2.95439">
        <ele>201.6</ele>
        <time>2025-02-27T11:41:02.000Z</time>
      </trkpt>
      <trkpt lat="48.54403" lon="-2.95548">
        <ele>200.2</ele>
        <time>2025-02-27T11:41:18.000Z</time>
      </trkpt>
      <trkpt lat="48.54422" lon="-2.9567">
        <ele>198.4</ele>
        <time>2025-02-27T11:41:34.000Z</time>
      </trkpt>
      <trkpt lat="48.54418" lon="-2.95758">
        <ele>196.6</ele>
        <time>2025-02-27T11:41:44.000Z</time>
      </trkpt>
      <trkpt lat="48.54396" lon="-2.95902">
        <ele>193.8</ele>
        <time>2025-02-27T11:42:00.000Z</time>
      </trkpt>
      <trkpt lat="48.54387" lon="-2.96026">
        <ele>192.4</ele>
        <time>2025-02-27T11:42:15.000Z</time>
      </trkpt>
      <trkpt lat="48.54367" lon="-2.96074">
        <ele>192.4</ele>
        <time>2025-02-27T11:42:22.000Z</time>
      </trkpt>
      <trkpt lat="48.54344" lon="-2.96115">
        <ele>193.4</ele>
        <time>2025-02-27T11:42:30.000Z</time>
      </trkpt>
      <trkpt lat="48.54354" lon="-2.96134">
        <ele>194</ele>
        <time>2025-02-27T11:42:42.000Z</time>
      </trkpt>
      <trkpt lat="48.5442" lon="-2.96178">
        <ele>192.4</ele>
        <time>2025-02-27T11:42:58.000Z</time>
      </trkpt>
      <trkpt lat="48.54465" lon="-2.96234">
        <ele>191</ele>
        <time>2025-02-27T11:43:10.000Z</time>
      </trkpt>
      <trkpt lat="48.54494" lon="-2.96329">
        <ele>188.2</ele>
        <time>2025-02-27T11:43:22.000Z</time>
      </trkpt>
      <trkpt lat="48.54497" lon="-2.96418">
        <ele>185.8</ele>
        <time>2025-02-27T11:43:33.000Z</time>
      </trkpt>
      <trkpt lat="48.54476" lon="-2.96505">
        <ele>182.6</ele>
        <time>2025-02-27T11:43:44.000Z</time>
      </trkpt>
      <trkpt lat="48.54416" lon="-2.96623">
        <ele>177.2</ele>
        <time>2025-02-27T11:44:00.000Z</time>
      </trkpt>
      <trkpt lat="48.54365" lon="-2.96734">
        <ele>171.8</ele>
        <time>2025-02-27T11:44:16.000Z</time>
      </trkpt>
      <trkpt lat="48.54332" lon="-2.96839">
        <ele>167.8</ele>
        <time>2025-02-27T11:44:32.000Z</time>
      </trkpt>
      <trkpt lat="48.54295" lon="-2.96962">
        <ele>166.2</ele>
        <time>2025-02-27T11:44:48.000Z</time>
      </trkpt>
      <trkpt lat="48.54263" lon="-2.97061">
        <ele>165.6</ele>
        <time>2025-02-27T11:45:04.000Z</time>
      </trkpt>
      <trkpt lat="48.54231" lon="-2.97165">
        <ele>166.4</ele>
        <time>2025-02-27T11:45:20.000Z</time>
      </trkpt>
      <trkpt lat="48.54195" lon="-2.9728">
        <ele>166.2</ele>
        <time>2025-02-27T11:45:37.000Z</time>
      </trkpt>
      <trkpt lat="48.54173" lon="-2.97368">
        <ele>166.4</ele>
        <time>2025-02-27T11:45:49.000Z</time>
      </trkpt>
      <trkpt lat="48.54169" lon="-2.97492">
        <ele>168</ele>
        <time>2025-02-27T11:46:05.000Z</time>
      </trkpt>
      <trkpt lat="48.54168" lon="-2.97603">
        <ele>172.6</ele>
        <time>2025-02-27T11:46:21.000Z</time>
      </trkpt>
      <trkpt lat="48.5416" lon="-2.97692">
        <ele>177.4</ele>
        <time>2025-02-27T11:46:37.000Z</time>
      </trkpt>
      <trkpt lat="48.54152" lon="-2.97765">
        <ele>180.4</ele>
        <time>2025-02-27T11:46:53.000Z</time>
      </trkpt>
      <trkpt lat="48.54143" lon="-2.9784">
        <ele>182.4</ele>
        <time>2025-02-27T11:47:09.000Z</time>
      </trkpt>
      <trkpt lat="48.54136" lon="-2.97911">
        <ele>184.2</ele>
        <time>2025-02-27T11:47:25.000Z</time>
      </trkpt>
      <trkpt lat="48.5412" lon="-2.97989">
        <ele>185.8</ele>
        <time>2025-02-27T11:47:41.000Z</time>
      </trkpt>
      <trkpt lat="48.54099" lon="-2.98068">
        <ele>185.8</ele>
        <time>2025-02-27T11:47:58.000Z</time>
      </trkpt>
      <trkpt lat="48.54075" lon="-2.98166">
        <ele>186.2</ele>
        <time>2025-02-27T11:48:14.000Z</time>
      </trkpt>
      <trkpt lat="48.54051" lon="-2.98269">
        <ele>187</ele>
        <time>2025-02-27T11:48:30.000Z</time>
      </trkpt>
      <trkpt lat="48.54021" lon="-2.98384">
        <ele>187.8</ele>
        <time>2025-02-27T11:48:46.000Z</time>
      </trkpt>
      <trkpt lat="48.53992" lon="-2.98504">
        <ele>190</ele>
        <time>2025-02-27T11:49:02.000Z</time>
      </trkpt>
      <trkpt lat="48.53967" lon="-2.98605">
        <ele>191.4</ele>
        <time>2025-02-27T11:49:17.000Z</time>
      </trkpt>
      <trkpt lat="48.53937" lon="-2.98722">
        <ele>192.4</ele>
        <time>2025-02-27T11:49:33.000Z</time>
      </trkpt>
      <trkpt lat="48.53913" lon="-2.98821">
        <ele>193.6</ele>
        <time>2025-02-27T11:49:49.000Z</time>
      </trkpt>
      <trkpt lat="48.53905" lon="-2.98898">
        <ele>194.4</ele>
        <time>2025-02-27T11:50:01.000Z</time>
      </trkpt>
      <trkpt lat="48.53885" lon="-2.98943">
        <ele>195.2</ele>
        <time>2025-02-27T11:50:10.000Z</time>
      </trkpt>
      <trkpt lat="48.53865" lon="-2.99026">
        <ele>196.8</ele>
        <time>2025-02-27T11:50:27.000Z</time>
      </trkpt>
      <trkpt lat="48.53845" lon="-2.99105">
        <ele>198.6</ele>
        <time>2025-02-27T11:50:43.000Z</time>
      </trkpt>
      <trkpt lat="48.53826" lon="-2.99181">
        <ele>199.8</ele>
        <time>2025-02-27T11:50:59.000Z</time>
      </trkpt>
      <trkpt lat="48.53808" lon="-2.99253">
        <ele>201</ele>
        <time>2025-02-27T11:51:15.000Z</time>
      </trkpt>
      <trkpt lat="48.53791" lon="-2.99309">
        <ele>202.2</ele>
        <time>2025-02-27T11:51:28.000Z</time>
      </trkpt>
      <trkpt lat="48.53772" lon="-2.99391">
        <ele>204</ele>
        <time>2025-02-27T11:51:44.000Z</time>
      </trkpt>
      <trkpt lat="48.5375" lon="-2.99482">
        <ele>204.6</ele>
        <time>2025-02-27T11:52:00.000Z</time>
      </trkpt>
      <trkpt lat="48.53726" lon="-2.99576">
        <ele>205</ele>
        <time>2025-02-27T11:52:16.000Z</time>
      </trkpt>
      <trkpt lat="48.53724" lon="-2.99619">
        <ele>205.2</ele>
        <time>2025-02-27T11:52:22.000Z</time>
      </trkpt>
      <trkpt lat="48.53707" lon="-2.99651">
        <ele>205.4</ele>
        <time>2025-02-27T11:52:28.000Z</time>
      </trkpt>
      <trkpt lat="48.53685" lon="-2.99726">
        <ele>206.4</ele>
        <time>2025-02-27T11:52:40.000Z</time>
      </trkpt>
      <trkpt lat="48.53663" lon="-2.99824">
        <ele>208.6</ele>
        <time>2025-02-27T11:52:55.000Z</time>
      </trkpt>
      <trkpt lat="48.53641" lon="-2.99913">
        <ele>211.6</ele>
        <time>2025-02-27T11:53:11.000Z</time>
      </trkpt>
      <trkpt lat="48.53634" lon="-2.99993">
        <ele>212.2</ele>
        <time>2025-02-27T11:53:27.000Z</time>
      </trkpt>
      <trkpt lat="48.53633" lon="-3.00106">
        <ele>210.4</ele>
        <time>2025-02-27T11:53:43.000Z</time>
      </trkpt>
      <trkpt lat="48.53623" lon="-3.00188">
        <ele>209.8</ele>
        <time>2025-02-27T11:53:54.000Z</time>
      </trkpt>
      <trkpt lat="48.53613" lon="-3.0026">
        <ele>209.4</ele>
        <time>2025-02-27T11:54:04.000Z</time>
      </trkpt>
      <trkpt lat="48.53626" lon="-3.00309">
        <ele>209.6</ele>
        <time>2025-02-27T11:54:11.000Z</time>
      </trkpt>
      <trkpt lat="48.53627" lon="-3.00391">
        <ele>209.4</ele>
        <time>2025-02-27T11:54:21.000Z</time>
      </trkpt>
      <trkpt lat="48.53626" lon="-3.00495">
        <ele>209.4</ele>
        <time>2025-02-27T11:54:37.000Z</time>
      </trkpt>
      <trkpt lat="48.53625" lon="-3.00607">
        <ele>208.8</ele>
        <time>2025-02-27T11:54:53.000Z</time>
      </trkpt>
      <trkpt lat="48.53623" lon="-3.0074">
        <ele>208.4</ele>
        <time>2025-02-27T11:55:10.000Z</time>
      </trkpt>
      <trkpt lat="48.53622" lon="-3.00872">
        <ele>208.2</ele>
        <time>2025-02-27T11:55:26.000Z</time>
      </trkpt>
      <trkpt lat="48.5362" lon="-3.01002">
        <ele>208.6</ele>
        <time>2025-02-27T11:55:42.000Z</time>
      </trkpt>
      <trkpt lat="48.5362" lon="-3.01145">
        <ele>208.4</ele>
        <time>2025-02-27T11:55:58.000Z</time>
      </trkpt>
      <trkpt lat="48.53621" lon="-3.0131">
        <ele>206</ele>
        <time>2025-02-27T11:56:14.000Z</time>
      </trkpt>
      <trkpt lat="48.53622" lon="-3.01482">
        <ele>205.2</ele>
        <time>2025-02-27T11:56:30.000Z</time>
      </trkpt>
      <trkpt lat="48.53624" lon="-3.01657">
        <ele>203.4</ele>
        <time>2025-02-27T11:56:46.000Z</time>
      </trkpt>
      <trkpt lat="48.53624" lon="-3.01816">
        <ele>203</ele>
        <time>2025-02-27T11:57:02.000Z</time>
      </trkpt>
      <trkpt lat="48.53639" lon="-3.01959">
        <ele>203.4</ele>
        <time>2025-02-27T11:57:17.000Z</time>
      </trkpt>
      <trkpt lat="48.53657" lon="-3.02101">
        <ele>203.6</ele>
        <time>2025-02-27T11:57:34.000Z</time>
      </trkpt>
      <trkpt lat="48.53667" lon="-3.0225">
        <ele>203</ele>
        <time>2025-02-27T11:57:50.000Z</time>
      </trkpt>
      <trkpt lat="48.53677" lon="-3.02401">
        <ele>202</ele>
        <time>2025-02-27T11:58:06.000Z</time>
      </trkpt>
      <trkpt lat="48.53685" lon="-3.0255">
        <ele>202.2</ele>
        <time>2025-02-27T11:58:22.000Z</time>
      </trkpt>
      <trkpt lat="48.53686" lon="-3.0268">
        <ele>203.2</ele>
        <time>2025-02-27T11:58:38.000Z</time>
      </trkpt>
      <trkpt lat="48.5368" lon="-3.02792">
        <ele>204.2</ele>
        <time>2025-02-27T11:58:54.000Z</time>
      </trkpt>
      <trkpt lat="48.53673" lon="-3.029">
        <ele>205.4</ele>
        <time>2025-02-27T11:59:10.000Z</time>
      </trkpt>
      <trkpt lat="48.53667" lon="-3.02992">
        <ele>206.8</ele>
        <time>2025-02-27T11:59:26.000Z</time>
      </trkpt>
      <trkpt lat="48.53661" lon="-3.03083">
        <ele>208</ele>
        <time>2025-02-27T11:59:42.000Z</time>
      </trkpt>
      <trkpt lat="48.53656" lon="-3.03175">
        <ele>210</ele>
        <time>2025-02-27T11:59:59.000Z</time>
      </trkpt>
      <trkpt lat="48.53651" lon="-3.03257">
        <ele>212.2</ele>
        <time>2025-02-27T12:00:15.000Z</time>
      </trkpt>
      <trkpt lat="48.53646" lon="-3.03333">
        <ele>214.8</ele>
        <time>2025-02-27T12:00:31.000Z</time>
      </trkpt>
      <trkpt lat="48.53645" lon="-3.03406">
        <ele>216.2</ele>
        <time>2025-02-27T12:00:47.000Z</time>
      </trkpt>
      <trkpt lat="48.53651" lon="-3.03478">
        <ele>217.8</ele>
        <time>2025-02-27T12:01:03.000Z</time>
      </trkpt>
      <trkpt lat="48.53668" lon="-3.03557">
        <ele>219.4</ele>
        <time>2025-02-27T12:01:19.000Z</time>
      </trkpt>
      <trkpt lat="48.53697" lon="-3.03633">
        <ele>220.4</ele>
        <time>2025-02-27T12:01:35.000Z</time>
      </trkpt>
      <trkpt lat="48.53723" lon="-3.03707">
        <ele>221.2</ele>
        <time>2025-02-27T12:01:51.000Z</time>
      </trkpt>
      <trkpt lat="48.53742" lon="-3.03804">
        <ele>221</ele>
        <time>2025-02-27T12:02:07.000Z</time>
      </trkpt>
      <trkpt lat="48.53744" lon="-3.03924">
        <ele>220</ele>
        <time>2025-02-27T12:02:24.000Z</time>
      </trkpt>
      <trkpt lat="48.53726" lon="-3.04041">
        <ele>219.4</ele>
        <time>2025-02-27T12:02:39.000Z</time>
      </trkpt>
      <trkpt lat="48.53699" lon="-3.0418">
        <ele>219.4</ele>
        <time>2025-02-27T12:02:55.000Z</time>
      </trkpt>
      <trkpt lat="48.53677" lon="-3.04294">
        <ele>221.8</ele>
        <time>2025-02-27T12:03:11.000Z</time>
      </trkpt>
      <trkpt lat="48.53665" lon="-3.04366">
        <ele>223.2</ele>
        <time>2025-02-27T12:03:27.000Z</time>
      </trkpt>
      <trkpt lat="48.53648" lon="-3.04454">
        <ele>223.8</ele>
        <time>2025-02-27T12:03:43.000Z</time>
      </trkpt>
      <trkpt lat="48.53627" lon="-3.04572">
        <ele>223</ele>
        <time>2025-02-27T12:03:59.000Z</time>
      </trkpt>
      <trkpt lat="48.53617" lon="-3.0471">
        <ele>222</ele>
        <time>2025-02-27T12:04:15.000Z</time>
      </trkpt>
      <trkpt lat="48.53619" lon="-3.04846">
        <ele>221.4</ele>
        <time>2025-02-27T12:04:31.000Z</time>
      </trkpt>
      <trkpt lat="48.53626" lon="-3.0496">
        <ele>222.8</ele>
        <time>2025-02-27T12:04:48.000Z</time>
      </trkpt>
      <trkpt lat="48.53633" lon="-3.05068">
        <ele>224.2</ele>
        <time>2025-02-27T12:05:04.000Z</time>
      </trkpt>
      <trkpt lat="48.53642" lon="-3.05171">
        <ele>225.6</ele>
        <time>2025-02-27T12:05:20.000Z</time>
      </trkpt>
      <trkpt lat="48.53654" lon="-3.05269">
        <ele>226.6</ele>
        <time>2025-02-27T12:05:36.000Z</time>
      </trkpt>
      <trkpt lat="48.53667" lon="-3.05361">
        <ele>228</ele>
        <time>2025-02-27T12:05:52.000Z</time>
      </trkpt>
      <trkpt lat="48.53683" lon="-3.05452">
        <ele>229</ele>
        <time>2025-02-27T12:06:08.000Z</time>
      </trkpt>
      <trkpt lat="48.53703" lon="-3.0555">
        <ele>229.6</ele>
        <time>2025-02-27T12:06:24.000Z</time>
      </trkpt>
      <trkpt lat="48.53725" lon="-3.05643">
        <ele>230</ele>
        <time>2025-02-27T12:06:40.000Z</time>
      </trkpt>
      <trkpt lat="48.53748" lon="-3.05735">
        <ele>230</ele>
        <time>2025-02-27T12:06:57.000Z</time>
      </trkpt>
      <trkpt lat="48.53772" lon="-3.05829">
        <ele>230.4</ele>
        <time>2025-02-27T12:07:13.000Z</time>
      </trkpt>
      <trkpt lat="48.53801" lon="-3.05947">
        <ele>230.2</ele>
        <time>2025-02-27T12:07:29.000Z</time>
      </trkpt>
      <trkpt lat="48.53831" lon="-3.06064">
        <ele>229.4</ele>
        <time>2025-02-27T12:07:45.000Z</time>
      </trkpt>
      <trkpt lat="48.53859" lon="-3.06191">
        <ele>228.8</ele>
        <time>2025-02-27T12:08:01.000Z</time>
      </trkpt>
      <trkpt lat="48.53888" lon="-3.06317">
        <ele>228.8</ele>
        <time>2025-02-27T12:08:17.000Z</time>
      </trkpt>
      <trkpt lat="48.53911" lon="-3.06406">
        <ele>229</ele>
        <time>2025-02-27T12:08:33.000Z</time>
      </trkpt>
      <trkpt lat="48.53922" lon="-3.06453">
        <ele>228.4</ele>
        <time>2025-02-27T12:11:21.000Z</time>
      </trkpt>
      <trkpt lat="48.53943" lon="-3.06535">
        <ele>227.2</ele>
        <time>2025-02-27T12:11:37.000Z</time>
      </trkpt>
      <trkpt lat="48.53976" lon="-3.06668">
        <ele>223.8</ele>
        <time>2025-02-27T12:11:54.000Z</time>
      </trkpt>
      <trkpt lat="48.54007" lon="-3.06792">
        <ele>219.4</ele>
        <time>2025-02-27T12:12:04.000Z</time>
      </trkpt>
      <trkpt lat="48.54035" lon="-3.06903">
        <ele>216.8</ele>
        <time>2025-02-27T12:12:13.000Z</time>
      </trkpt>
      <trkpt lat="48.54076" lon="-3.07067">
        <ele>214.8</ele>
        <time>2025-02-27T12:12:29.000Z</time>
      </trkpt>
      <trkpt lat="48.54112" lon="-3.0722">
        <ele>213.2</ele>
        <time>2025-02-27T12:12:45.000Z</time>
      </trkpt>
      <trkpt lat="48.54148" lon="-3.07379">
        <ele>211.2</ele>
        <time>2025-02-27T12:13:01.000Z</time>
      </trkpt>
      <trkpt lat="48.54185" lon="-3.07535">
        <ele>208.4</ele>
        <time>2025-02-27T12:13:17.000Z</time>
      </trkpt>
      <trkpt lat="48.54227" lon="-3.07699">
        <ele>205</ele>
        <time>2025-02-27T12:13:32.000Z</time>
      </trkpt>
      <trkpt lat="48.54266" lon="-3.07775">
        <ele>203</ele>
        <time>2025-02-27T12:13:40.000Z</time>
      </trkpt>
      <trkpt lat="48.54318" lon="-3.07826">
        <ele>201</ele>
        <time>2025-02-27T12:13:48.000Z</time>
      </trkpt>
      <trkpt lat="48.5441" lon="-3.07854">
        <ele>198.6</ele>
        <time>2025-02-27T12:14:00.000Z</time>
      </trkpt>
      <trkpt lat="48.545" lon="-3.07877">
        <ele>197.4</ele>
        <time>2025-02-27T12:14:14.000Z</time>
      </trkpt>
      <trkpt lat="48.54567" lon="-3.07931">
        <ele>197</ele>
        <time>2025-02-27T12:14:26.000Z</time>
      </trkpt>
      <trkpt lat="48.54609" lon="-3.07994">
        <ele>197.4</ele>
        <time>2025-02-27T12:14:36.000Z</time>
      </trkpt>
      <trkpt lat="48.54635" lon="-3.08083">
        <ele>198.4</ele>
        <time>2025-02-27T12:14:47.000Z</time>
      </trkpt>
      <trkpt lat="48.54638" lon="-3.08189">
        <ele>199.8</ele>
        <time>2025-02-27T12:15:01.000Z</time>
      </trkpt>
      <trkpt lat="48.54615" lon="-3.08287">
        <ele>202</ele>
        <time>2025-02-27T12:15:17.000Z</time>
      </trkpt>
      <trkpt lat="48.54583" lon="-3.08348">
        <ele>204</ele>
        <time>2025-02-27T12:15:31.000Z</time>
      </trkpt>
      <trkpt lat="48.54541" lon="-3.08396">
        <ele>206.4</ele>
        <time>2025-02-27T12:15:47.000Z</time>
      </trkpt>
      <trkpt lat="48.54507" lon="-3.08433">
        <ele>208</ele>
        <time>2025-02-27T12:16:02.000Z</time>
      </trkpt>
      <trkpt lat="48.54502" lon="-3.08473">
        <ele>208</ele>
        <time>2025-02-27T12:16:10.000Z</time>
      </trkpt>
      <trkpt lat="48.54539" lon="-3.08617">
        <ele>204</ele>
        <time>2025-02-27T12:16:26.000Z</time>
      </trkpt>
      <trkpt lat="48.54588" lon="-3.08794">
        <ele>199.6</ele>
        <time>2025-02-27T12:16:43.000Z</time>
      </trkpt>
      <trkpt lat="48.5464" lon="-3.08952">
        <ele>197.6</ele>
        <time>2025-02-27T12:16:59.000Z</time>
      </trkpt>
      <trkpt lat="48.54692" lon="-3.09094">
        <ele>196.4</ele>
        <time>2025-02-27T12:17:15.000Z</time>
      </trkpt>
      <trkpt lat="48.54749" lon="-3.09232">
        <ele>194.6</ele>
        <time>2025-02-27T12:17:31.000Z</time>
      </trkpt>
      <trkpt lat="48.54817" lon="-3.0938">
        <ele>192.6</ele>
        <time>2025-02-27T12:17:47.000Z</time>
      </trkpt>
      <trkpt lat="48.5489" lon="-3.09537">
        <ele>190.4</ele>
        <time>2025-02-27T12:18:03.000Z</time>
      </trkpt>
      <trkpt lat="48.54968" lon="-3.09702">
        <ele>187.8</ele>
        <time>2025-02-27T12:18:19.000Z</time>
      </trkpt>
      <trkpt lat="48.55036" lon="-3.09869">
        <ele>185.8</ele>
        <time>2025-02-27T12:18:35.000Z</time>
      </trkpt>
      <trkpt lat="48.55096" lon="-3.1005">
        <ele>183.8</ele>
        <time>2025-02-27T12:18:52.000Z</time>
      </trkpt>
      <trkpt lat="48.55138" lon="-3.10218">
        <ele>185.6</ele>
        <time>2025-02-27T12:19:08.000Z</time>
      </trkpt>
      <trkpt lat="48.55166" lon="-3.10338">
        <ele>187.6</ele>
        <time>2025-02-27T12:19:24.000Z</time>
      </trkpt>
      <trkpt lat="48.55187" lon="-3.10432">
        <ele>189.4</ele>
        <time>2025-02-27T12:19:40.000Z</time>
      </trkpt>
      <trkpt lat="48.55207" lon="-3.10521">
        <ele>190.8</ele>
        <time>2025-02-27T12:19:56.000Z</time>
      </trkpt>
      <trkpt lat="48.55226" lon="-3.10608">
        <ele>192</ele>
        <time>2025-02-27T12:20:12.000Z</time>
      </trkpt>
      <trkpt lat="48.55238" lon="-3.10644">
        <ele>192</ele>
        <time>2025-02-27T12:20:21.000Z</time>
      </trkpt>
      <trkpt lat="48.55258" lon="-3.10738">
        <ele>190.8</ele>
        <time>2025-02-27T12:20:37.000Z</time>
      </trkpt>
      <trkpt lat="48.55276" lon="-3.10814">
        <ele>189.8</ele>
        <time>2025-02-27T12:20:53.000Z</time>
      </trkpt>
      <trkpt lat="48.55289" lon="-3.10912">
        <ele>187.8</ele>
        <time>2025-02-27T12:21:09.000Z</time>
      </trkpt>
      <trkpt lat="48.55303" lon="-3.11006">
        <ele>186.8</ele>
        <time>2025-02-27T12:21:26.000Z</time>
      </trkpt>
      <trkpt lat="48.55315" lon="-3.11098">
        <ele>186.6</ele>
        <time>2025-02-27T12:21:42.000Z</time>
      </trkpt>
      <trkpt lat="48.55325" lon="-3.11173">
        <ele>186.4</ele>
        <time>2025-02-27T12:21:58.000Z</time>
      </trkpt>
      <trkpt lat="48.55336" lon="-3.11262">
        <ele>186.4</ele>
        <time>2025-02-27T12:22:14.000Z</time>
      </trkpt>
      <trkpt lat="48.55349" lon="-3.11358">
        <ele>185.8</ele>
        <time>2025-02-27T12:22:30.000Z</time>
      </trkpt>
      <trkpt lat="48.55359" lon="-3.11438">
        <ele>184.8</ele>
        <time>2025-02-27T12:22:43.000Z</time>
      </trkpt>
      <trkpt lat="48.55369" lon="-3.11513">
        <ele>183.8</ele>
        <time>2025-02-27T12:22:59.000Z</time>
      </trkpt>
      <trkpt lat="48.55379" lon="-3.1159">
        <ele>184</ele>
        <time>2025-02-27T12:23:15.000Z</time>
      </trkpt>
      <trkpt lat="48.5539" lon="-3.11682">
        <ele>184.2</ele>
        <time>2025-02-27T12:23:31.000Z</time>
      </trkpt>
      <trkpt lat="48.55404" lon="-3.11775">
        <ele>184.6</ele>
        <time>2025-02-27T12:23:48.000Z</time>
      </trkpt>
      <trkpt lat="48.55415" lon="-3.11856">
        <ele>184.8</ele>
        <time>2025-02-27T12:24:04.000Z</time>
      </trkpt>
      <trkpt lat="48.55425" lon="-3.1193">
        <ele>185.2</ele>
        <time>2025-02-27T12:24:20.000Z</time>
      </trkpt>
      <trkpt lat="48.55439" lon="-3.12015">
        <ele>185.2</ele>
        <time>2025-02-27T12:24:36.000Z</time>
      </trkpt>
      <trkpt lat="48.55465" lon="-3.12097">
        <ele>184.6</ele>
        <time>2025-02-27T12:24:52.000Z</time>
      </trkpt>
      <trkpt lat="48.55496" lon="-3.12181">
        <ele>183.4</ele>
        <time>2025-02-27T12:25:08.000Z</time>
      </trkpt>
      <trkpt lat="48.55525" lon="-3.1227">
        <ele>182.6</ele>
        <time>2025-02-27T12:25:24.000Z</time>
      </trkpt>
      <trkpt lat="48.55537" lon="-3.12337">
        <ele>181.6</ele>
        <time>2025-02-27T12:25:39.000Z</time>
      </trkpt>
      <trkpt lat="48.55557" lon="-3.12357">
        <ele>181.6</ele>
        <time>2025-02-27T12:25:47.000Z</time>
      </trkpt>
      <trkpt lat="48.55622" lon="-3.12347">
        <ele>180.6</ele>
        <time>2025-02-27T12:26:04.000Z</time>
      </trkpt>
      <trkpt lat="48.55694" lon="-3.12351">
        <ele>179.8</ele>
        <time>2025-02-27T12:26:20.000Z</time>
      </trkpt>
      <trkpt lat="48.55776" lon="-3.1236">
        <ele>178.6</ele>
        <time>2025-02-27T12:26:36.000Z</time>
      </trkpt>
      <trkpt lat="48.55833" lon="-3.12386">
        <ele>177.2</ele>
        <time>2025-02-27T12:26:47.000Z</time>
      </trkpt>
      <trkpt lat="48.55892" lon="-3.12456">
        <ele>175.6</ele>
        <time>2025-02-27T12:27:00.000Z</time>
      </trkpt>
      <trkpt lat="48.5593" lon="-3.12495">
        <ele>174.2</ele>
        <time>2025-02-27T12:27:13.000Z</time>
      </trkpt>
      <trkpt lat="48.55942" lon="-3.12523">
        <ele>173.6</ele>
        <time>2025-02-27T12:27:18.000Z</time>
      </trkpt>
      <trkpt lat="48.55967" lon="-3.12578">
        <ele>172.8</ele>
        <time>2025-02-27T12:27:29.000Z</time>
      </trkpt>
      <trkpt lat="48.56019" lon="-3.1264">
        <ele>170</ele>
        <time>2025-02-27T12:27:41.000Z</time>
      </trkpt>
      <trkpt lat="48.56064" lon="-3.12663">
        <ele>167.4</ele>
        <time>2025-02-27T12:27:52.000Z</time>
      </trkpt>
      <trkpt lat="48.56097" lon="-3.12648">
        <ele>167.2</ele>
        <time>2025-02-27T12:28:00.000Z</time>
      </trkpt>
      <trkpt lat="48.56117" lon="-3.12666">
        <ele>166.8</ele>
        <time>2025-02-27T12:28:04.000Z</time>
      </trkpt>
      <trkpt lat="48.56139" lon="-3.12724">
        <ele>166.2</ele>
        <time>2025-02-27T12:28:11.000Z</time>
      </trkpt>
      <trkpt lat="48.56233" lon="-3.12809">
        <ele>164.6</ele>
        <time>2025-02-27T12:28:28.000Z</time>
      </trkpt>
      <trkpt lat="48.56329" lon="-3.12899">
        <ele>163.6</ele>
        <time>2025-02-27T12:28:44.000Z</time>
      </trkpt>
      <trkpt lat="48.56424" lon="-3.12978">
        <ele>163.2</ele>
        <time>2025-02-27T12:29:00.000Z</time>
      </trkpt>
      <trkpt lat="48.5651" lon="-3.13035">
        <ele>164.2</ele>
        <time>2025-02-27T12:29:16.000Z</time>
      </trkpt>
      <trkpt lat="48.56582" lon="-3.13079">
        <ele>166.8</ele>
        <time>2025-02-27T12:29:32.000Z</time>
      </trkpt>
      <trkpt lat="48.56638" lon="-3.13114">
        <ele>169.8</ele>
        <time>2025-02-27T12:29:48.000Z</time>
      </trkpt>
      <trkpt lat="48.56687" lon="-3.13144">
        <ele>173.2</ele>
        <time>2025-02-27T12:30:04.000Z</time>
      </trkpt>
      <trkpt lat="48.56729" lon="-3.13169">
        <ele>176.2</ele>
        <time>2025-02-27T12:30:20.000Z</time>
      </trkpt>
      <trkpt lat="48.56765" lon="-3.13191">
        <ele>179</ele>
        <time>2025-02-27T12:30:36.000Z</time>
      </trkpt>
      <trkpt lat="48.56799" lon="-3.13213">
        <ele>181.4</ele>
        <time>2025-02-27T12:30:53.000Z</time>
      </trkpt>
      <trkpt lat="48.56836" lon="-3.13235">
        <ele>183.6</ele>
        <time>2025-02-27T12:31:09.000Z</time>
      </trkpt>
      <trkpt lat="48.56873" lon="-3.13259">
        <ele>185.8</ele>
        <time>2025-02-27T12:31:25.000Z</time>
      </trkpt>
      <trkpt lat="48.56911" lon="-3.13282">
        <ele>187.8</ele>
        <time>2025-02-27T12:31:41.000Z</time>
      </trkpt>
      <trkpt lat="48.56949" lon="-3.13306">
        <ele>189.4</ele>
        <time>2025-02-27T12:31:57.000Z</time>
      </trkpt>
      <trkpt lat="48.56986" lon="-3.1333">
        <ele>191</ele>
        <time>2025-02-27T12:32:13.000Z</time>
      </trkpt>
      <trkpt lat="48.57029" lon="-3.13357">
        <ele>192.4</ele>
        <time>2025-02-27T12:32:29.000Z</time>
      </trkpt>
      <trkpt lat="48.57072" lon="-3.13384">
        <ele>193.8</ele>
        <time>2025-02-27T12:32:45.000Z</time>
      </trkpt>
      <trkpt lat="48.57118" lon="-3.13413">
        <ele>194.8</ele>
        <time>2025-02-27T12:33:01.000Z</time>
      </trkpt>
      <trkpt lat="48.57166" lon="-3.13444">
        <ele>195.8</ele>
        <time>2025-02-27T12:33:18.000Z</time>
      </trkpt>
      <trkpt lat="48.57212" lon="-3.13477">
        <ele>196.6</ele>
        <time>2025-02-27T12:33:34.000Z</time>
      </trkpt>
      <trkpt lat="48.57262" lon="-3.13525">
        <ele>197.4</ele>
        <time>2025-02-27T12:33:50.000Z</time>
      </trkpt>
      <trkpt lat="48.57312" lon="-3.13589">
        <ele>198</ele>
        <time>2025-02-27T12:34:06.000Z</time>
      </trkpt>
      <trkpt lat="48.57351" lon="-3.13655">
        <ele>199</ele>
        <time>2025-02-27T12:34:22.000Z</time>
      </trkpt>
      <trkpt lat="48.57386" lon="-3.13734">
        <ele>200</ele>
        <time>2025-02-27T12:34:38.000Z</time>
      </trkpt>
      <trkpt lat="48.57417" lon="-3.13836">
        <ele>200.6</ele>
        <time>2025-02-27T12:34:54.000Z</time>
      </trkpt>
      <trkpt lat="48.57438" lon="-3.13946">
        <ele>200.2</ele>
        <time>2025-02-27T12:35:10.000Z</time>
      </trkpt>
      <trkpt lat="48.57454" lon="-3.14066">
        <ele>199.6</ele>
        <time>2025-02-27T12:35:26.000Z</time>
      </trkpt>
      <trkpt lat="48.5747" lon="-3.14183">
        <ele>198.6</ele>
        <time>2025-02-27T12:35:43.000Z</time>
      </trkpt>
      <trkpt lat="48.57488" lon="-3.14288">
        <ele>197.6</ele>
        <time>2025-02-27T12:35:57.000Z</time>
      </trkpt>
      <trkpt lat="48.5751" lon="-3.14325">
        <ele>197.6</ele>
        <time>2025-02-27T12:36:03.000Z</time>
      </trkpt>
      <trkpt lat="48.5753" lon="-3.1435">
        <ele>197.4</ele>
        <time>2025-02-27T12:36:08.000Z</time>
      </trkpt>
      <trkpt lat="48.5753" lon="-3.1438">
        <ele>197</ele>
        <time>2025-02-27T12:36:12.000Z</time>
      </trkpt>
      <trkpt lat="48.57507" lon="-3.14404">
        <ele>196.6</ele>
        <time>2025-02-27T12:36:17.000Z</time>
      </trkpt>
      <trkpt lat="48.57477" lon="-3.1443">
        <ele>196.6</ele>
        <time>2025-02-27T12:36:23.000Z</time>
      </trkpt>
      <trkpt lat="48.57425" lon="-3.14534">
        <ele>197.2</ele>
        <time>2025-02-27T12:36:39.000Z</time>
      </trkpt>
      <trkpt lat="48.57355" lon="-3.14611">
        <ele>198</ele>
        <time>2025-02-27T12:36:55.000Z</time>
      </trkpt>
      <trkpt lat="48.57295" lon="-3.14664">
        <ele>198.2</ele>
        <time>2025-02-27T12:37:11.000Z</time>
      </trkpt>
      <trkpt lat="48.57233" lon="-3.14698">
        <ele>197.2</ele>
        <time>2025-02-27T12:37:25.000Z</time>
      </trkpt>
      <trkpt lat="48.57182" lon="-3.14712">
        <ele>196.6</ele>
        <time>2025-02-27T12:37:36.000Z</time>
      </trkpt>
      <trkpt lat="48.57125" lon="-3.1476">
        <ele>194.2</ele>
        <time>2025-02-27T12:37:50.000Z</time>
      </trkpt>
      <trkpt lat="48.57077" lon="-3.14804">
        <ele>192.2</ele>
        <time>2025-02-27T12:38:04.000Z</time>
      </trkpt>
      <trkpt lat="48.57073" lon="-3.14824">
        <ele>191.8</ele>
        <time>2025-02-27T12:38:08.000Z</time>
      </trkpt>
      <trkpt lat="48.57096" lon="-3.14887">
        <ele>192.8</ele>
        <time>2025-02-27T12:38:21.000Z</time>
      </trkpt>
      <trkpt lat="48.57086" lon="-3.14954">
        <ele>192.4</ele>
        <time>2025-02-27T12:38:35.000Z</time>
      </trkpt>
      <trkpt lat="48.57041" lon="-3.15028">
        <ele>190.2</ele>
        <time>2025-02-27T12:38:49.000Z</time>
      </trkpt>
      <trkpt lat="48.5702" lon="-3.15086">
        <ele>190</ele>
        <time>2025-02-27T12:39:05.000Z</time>
      </trkpt>
      <trkpt lat="48.57001" lon="-3.15113">
        <ele>190.4</ele>
        <time>2025-02-27T12:39:17.000Z</time>
      </trkpt>
      <trkpt lat="48.56949" lon="-3.15136">
        <ele>188.6</ele>
        <time>2025-02-27T12:39:29.000Z</time>
      </trkpt>
      <trkpt lat="48.56898" lon="-3.15198">
        <ele>186.4</ele>
        <time>2025-02-27T12:39:40.000Z</time>
      </trkpt>
      <trkpt lat="48.56842" lon="-3.15317">
        <ele>182.8</ele>
        <time>2025-02-27T12:39:56.000Z</time>
      </trkpt>
      <trkpt lat="48.5684" lon="-3.15355">
        <ele>181.6</ele>
        <time>2025-02-27T12:40:01.000Z</time>
      </trkpt>
      <trkpt lat="48.56864" lon="-3.15393">
        <ele>180.4</ele>
        <time>2025-02-27T12:40:07.000Z</time>
      </trkpt>
      <trkpt lat="48.56909" lon="-3.15452">
        <ele>178.8</ele>
        <time>2025-02-27T12:40:19.000Z</time>
      </trkpt>
      <trkpt lat="48.56942" lon="-3.155">
        <ele>178</ele>
        <time>2025-02-27T12:40:29.000Z</time>
      </trkpt>
      <trkpt lat="48.56999" lon="-3.15516">
        <ele>177</ele>
        <time>2025-02-27T12:40:43.000Z</time>
      </trkpt>
      <trkpt lat="48.57062" lon="-3.15525">
        <ele>176.2</ele>
        <time>2025-02-27T12:40:59.000Z</time>
      </trkpt>
      <trkpt lat="48.57108" lon="-3.15526">
        <ele>175.2</ele>
        <time>2025-02-27T12:41:11.000Z</time>
      </trkpt>
      <trkpt lat="48.57147" lon="-3.15484">
        <ele>173.2</ele>
        <time>2025-02-27T12:41:21.000Z</time>
      </trkpt>
      <trkpt lat="48.57181" lon="-3.15488">
        <ele>171.4</ele>
        <time>2025-02-27T12:41:28.000Z</time>
      </trkpt>
      <trkpt lat="48.572" lon="-3.15513">
        <ele>169.4</ele>
        <time>2025-02-27T12:41:35.000Z</time>
      </trkpt>
      <trkpt lat="48.57181" lon="-3.15593">
        <ele>165.2</ele>
        <time>2025-02-27T12:41:46.000Z</time>
      </trkpt>
      <trkpt lat="48.57147" lon="-3.15703">
        <ele>157.8</ele>
        <time>2025-02-27T12:42:02.000Z</time>
      </trkpt>
      <trkpt lat="48.5711" lon="-3.15773">
        <ele>152.4</ele>
        <time>2025-02-27T12:42:14.000Z</time>
      </trkpt>
      <trkpt lat="48.5707" lon="-3.15801">
        <ele>148.4</ele>
        <time>2025-02-27T12:42:22.000Z</time>
      </trkpt>
      <trkpt lat="48.57025" lon="-3.15813">
        <ele>144.2</ele>
        <time>2025-02-27T12:42:31.000Z</time>
      </trkpt>
      <trkpt lat="48.56983" lon="-3.15835">
        <ele>139.6</ele>
        <time>2025-02-27T12:42:42.000Z</time>
      </trkpt>
      <trkpt lat="48.56945" lon="-3.15856">
        <ele>135.6</ele>
        <time>2025-02-27T12:42:52.000Z</time>
      </trkpt>
      <trkpt lat="48.56901" lon="-3.15848">
        <ele>131.6</ele>
        <time>2025-02-27T12:43:03.000Z</time>
      </trkpt>
      <trkpt lat="48.56885" lon="-3.15864">
        <ele>129.2</ele>
        <time>2025-02-27T12:43:12.000Z</time>
      </trkpt>
      <trkpt lat="48.56888" lon="-3.15895">
        <ele>128.2</ele>
        <time>2025-02-27T12:43:24.000Z</time>
      </trkpt>
      <trkpt lat="48.56881" lon="-3.15916">
        <ele>128</ele>
        <time>2025-02-27T12:43:29.000Z</time>
      </trkpt>
      <trkpt lat="48.56847" lon="-3.15917">
        <ele>127.8</ele>
        <time>2025-02-27T12:43:36.000Z</time>
      </trkpt>
      <trkpt lat="48.56767" lon="-3.15944">
        <ele>128</ele>
        <time>2025-02-27T12:43:51.000Z</time>
      </trkpt>
      <trkpt lat="48.56681" lon="-3.1597">
        <ele>128.6</ele>
        <time>2025-02-27T12:44:07.000Z</time>
      </trkpt>
      <trkpt lat="48.56597" lon="-3.15997">
        <ele>128.6</ele>
        <time>2025-02-27T12:44:23.000Z</time>
      </trkpt>
      <trkpt lat="48.56538" lon="-3.16032">
        <ele>128.8</ele>
        <time>2025-02-27T12:44:34.000Z</time>
      </trkpt>
      <trkpt lat="48.56506" lon="-3.16079">
        <ele>128.8</ele>
        <time>2025-02-27T12:44:42.000Z</time>
      </trkpt>
      <trkpt lat="48.5651" lon="-3.16119">
        <ele>129.2</ele>
        <time>2025-02-27T12:44:48.000Z</time>
      </trkpt>
      <trkpt lat="48.56502" lon="-3.16141">
        <ele>129.6</ele>
        <time>2025-02-27T12:44:52.000Z</time>
      </trkpt>
      <trkpt lat="48.5648" lon="-3.16161">
        <ele>129.8</ele>
        <time>2025-02-27T12:44:58.000Z</time>
      </trkpt>
      <trkpt lat="48.56447" lon="-3.16277">
        <ele>130.2</ele>
        <time>2025-02-27T12:45:15.000Z</time>
      </trkpt>
      <trkpt lat="48.56436" lon="-3.16352">
        <ele>131</ele>
        <time>2025-02-27T12:45:26.000Z</time>
      </trkpt>
      <trkpt lat="48.56448" lon="-3.16446">
        <ele>133</ele>
        <time>2025-02-27T12:45:42.000Z</time>
      </trkpt>
      <trkpt lat="48.56448" lon="-3.16515">
        <ele>134.2</ele>
        <time>2025-02-27T12:45:55.000Z</time>
      </trkpt>
      <trkpt lat="48.56428" lon="-3.16576">
        <ele>135.6</ele>
        <time>2025-02-27T12:46:08.000Z</time>
      </trkpt>
      <trkpt lat="48.56389" lon="-3.16614">
        <ele>137.2</ele>
        <time>2025-02-27T12:46:22.000Z</time>
      </trkpt>
      <trkpt lat="48.56352" lon="-3.1665">
        <ele>138.4</ele>
        <time>2025-02-27T12:46:35.000Z</time>
      </trkpt>
      <trkpt lat="48.56348" lon="-3.16672">
        <ele>139.2</ele>
        <time>2025-02-27T12:46:44.000Z</time>
      </trkpt>
      <trkpt lat="48.56369" lon="-3.16727">
        <ele>140.4</ele>
        <time>2025-02-27T12:47:04.000Z</time>
      </trkpt>
      <trkpt lat="48.56399" lon="-3.168">
        <ele>142.4</ele>
        <time>2025-02-27T12:47:20.000Z</time>
      </trkpt>
      <trkpt lat="48.56427" lon="-3.16872">
        <ele>144.2</ele>
        <time>2025-02-27T12:47:37.000Z</time>
      </trkpt>
      <trkpt lat="48.56458" lon="-3.16949">
        <ele>145.6</ele>
        <time>2025-02-27T12:47:53.000Z</time>
      </trkpt>
      <trkpt lat="48.56491" lon="-3.17031">
        <ele>147.2</ele>
        <time>2025-02-27T12:48:09.000Z</time>
      </trkpt>
      <trkpt lat="48.56517" lon="-3.17106">
        <ele>150.4</ele>
        <time>2025-02-27T12:48:25.000Z</time>
      </trkpt>
      <trkpt lat="48.56537" lon="-3.17171">
        <ele>152.4</ele>
        <time>2025-02-27T12:48:41.000Z</time>
      </trkpt>
      <trkpt lat="48.56555" lon="-3.17236">
        <ele>154.6</ele>
        <time>2025-02-27T12:48:57.000Z</time>
      </trkpt>
      <trkpt lat="48.56572" lon="-3.17302">
        <ele>157</ele>
        <time>2025-02-27T12:49:13.000Z</time>
      </trkpt>
      <trkpt lat="48.56579" lon="-3.1737">
        <ele>158.2</ele>
        <time>2025-02-27T12:49:29.000Z</time>
      </trkpt>
      <trkpt lat="48.56583" lon="-3.17442">
        <ele>159.8</ele>
        <time>2025-02-27T12:49:45.000Z</time>
      </trkpt>
      <trkpt lat="48.56596" lon="-3.17517">
        <ele>162.2</ele>
        <time>2025-02-27T12:50:02.000Z</time>
      </trkpt>
      <trkpt lat="48.56611" lon="-3.17586">
        <ele>164.8</ele>
        <time>2025-02-27T12:50:18.000Z</time>
      </trkpt>
      <trkpt lat="48.56625" lon="-3.17649">
        <ele>167.4</ele>
        <time>2025-02-27T12:50:34.000Z</time>
      </trkpt>
      <trkpt lat="48.56631" lon="-3.17709">
        <ele>169.4</ele>
        <time>2025-02-27T12:50:50.000Z</time>
      </trkpt>
      <trkpt lat="48.56638" lon="-3.17779">
        <ele>170.8</ele>
        <time>2025-02-27T12:51:06.000Z</time>
      </trkpt>
      <trkpt lat="48.56655" lon="-3.1785">
        <ele>172.6</ele>
        <time>2025-02-27T12:51:22.000Z</time>
      </trkpt>
      <trkpt lat="48.5668" lon="-3.17921">
        <ele>174.8</ele>
        <time>2025-02-27T12:51:38.000Z</time>
      </trkpt>
      <trkpt lat="48.56705" lon="-3.17989">
        <ele>176.6</ele>
        <time>2025-02-27T12:51:54.000Z</time>
      </trkpt>
      <trkpt lat="48.56719" lon="-3.18052">
        <ele>178.8</ele>
        <time>2025-02-27T12:52:09.000Z</time>
      </trkpt>
      <trkpt lat="48.56706" lon="-3.1812">
        <ele>179.4</ele>
        <time>2025-02-27T12:52:24.000Z</time>
      </trkpt>
      <trkpt lat="48.56682" lon="-3.18212">
        <ele>179.4</ele>
        <time>2025-02-27T12:52:40.000Z</time>
      </trkpt>
      <trkpt lat="48.56672" lon="-3.18323">
        <ele>180.4</ele>
        <time>2025-02-27T12:52:55.000Z</time>
      </trkpt>
      <trkpt lat="48.56669" lon="-3.18413">
        <ele>183.2</ele>
        <time>2025-02-27T12:53:11.000Z</time>
      </trkpt>
      <trkpt lat="48.56663" lon="-3.18488">
        <ele>185.8</ele>
        <time>2025-02-27T12:53:27.000Z</time>
      </trkpt>
      <trkpt lat="48.56657" lon="-3.18553">
        <ele>188</ele>
        <time>2025-02-27T12:53:43.000Z</time>
      </trkpt>
      <trkpt lat="48.56649" lon="-3.18628">
        <ele>190</ele>
        <time>2025-02-27T12:53:59.000Z</time>
      </trkpt>
      <trkpt lat="48.56643" lon="-3.18705">
        <ele>191</ele>
        <time>2025-02-27T12:54:15.000Z</time>
      </trkpt>
      <trkpt lat="48.56634" lon="-3.18804">
        <ele>191.4</ele>
        <time>2025-02-27T12:54:31.000Z</time>
      </trkpt>
      <trkpt lat="48.56624" lon="-3.1891">
        <ele>191.8</ele>
        <time>2025-02-27T12:54:48.000Z</time>
      </trkpt>
      <trkpt lat="48.56612" lon="-3.19032">
        <ele>191.8</ele>
        <time>2025-02-27T12:55:04.000Z</time>
      </trkpt>
      <trkpt lat="48.56601" lon="-3.19151">
        <ele>194.2</ele>
        <time>2025-02-27T12:55:20.000Z</time>
      </trkpt>
      <trkpt lat="48.56593" lon="-3.1925">
        <ele>195.2</ele>
        <time>2025-02-27T12:55:36.000Z</time>
      </trkpt>
      <trkpt lat="48.56584" lon="-3.1937">
        <ele>194</ele>
        <time>2025-02-27T12:55:52.000Z</time>
      </trkpt>
      <trkpt lat="48.56573" lon="-3.19512">
        <ele>191.6</ele>
        <time>2025-02-27T12:56:08.000Z</time>
      </trkpt>
      <trkpt lat="48.56563" lon="-3.19672">
        <ele>189.2</ele>
        <time>2025-02-27T12:56:24.000Z</time>
      </trkpt>
      <trkpt lat="48.56564" lon="-3.19733">
        <ele>188.8</ele>
        <time>2025-02-27T12:56:31.000Z</time>
      </trkpt>
      <trkpt lat="48.56615" lon="-3.19806">
        <ele>185.8</ele>
        <time>2025-02-27T12:56:42.000Z</time>
      </trkpt>
      <trkpt lat="48.56689" lon="-3.19917">
        <ele>181.2</ele>
        <time>2025-02-27T12:56:54.000Z</time>
      </trkpt>
      <trkpt lat="48.56702" lon="-3.19937">
        <ele>180.2</ele>
        <time>2025-02-27T12:56:56.000Z</time>
      </trkpt>
      <trkpt lat="48.5676" lon="-3.2006">
        <ele>177.8</ele>
        <time>2025-02-27T12:57:09.000Z</time>
      </trkpt>
      <trkpt lat="48.56797" lon="-3.20114">
        <ele>179.2</ele>
        <time>2025-02-27T12:57:19.000Z</time>
      </trkpt>
      <trkpt lat="48.56852" lon="-3.20144">
        <ele>181.6</ele>
        <time>2025-02-27T12:57:35.000Z</time>
      </trkpt>
      <trkpt lat="48.56888" lon="-3.20163">
        <ele>183.4</ele>
        <time>2025-02-27T12:57:48.000Z</time>
      </trkpt>
      <trkpt lat="48.56897" lon="-3.20136">
        <ele>183.2</ele>
        <time>2025-02-27T12:57:55.000Z</time>
      </trkpt>
      <trkpt lat="48.56911" lon="-3.20016">
        <ele>181</ele>
        <time>2025-02-27T12:58:08.000Z</time>
      </trkpt>
      <trkpt lat="48.5693" lon="-3.19969">
        <ele>180.8</ele>
        <time>2025-02-27T12:58:14.000Z</time>
      </trkpt>
      <trkpt lat="48.56974" lon="-3.19942">
        <ele>183</ele>
        <time>2025-02-27T12:58:23.000Z</time>
      </trkpt>
      <trkpt lat="48.5701" lon="-3.1993">
        <ele>187.2</ele>
        <time>2025-02-27T12:58:39.000Z</time>
      </trkpt>
      <trkpt lat="48.57042" lon="-3.19916">
        <ele>189.8</ele>
        <time>2025-02-27T12:58:55.000Z</time>
      </trkpt>
      <trkpt lat="48.57075" lon="-3.19897">
        <ele>191.8</ele>
        <time>2025-02-27T12:59:11.000Z</time>
      </trkpt>
      <trkpt lat="48.57107" lon="-3.19867">
        <ele>192.8</ele>
        <time>2025-02-27T12:59:26.000Z</time>
      </trkpt>
      <trkpt lat="48.57131" lon="-3.19802">
        <ele>192.8</ele>
        <time>2025-02-27T12:59:41.000Z</time>
      </trkpt>
      <trkpt lat="48.57151" lon="-3.19708">
        <ele>192.6</ele>
        <time>2025-02-27T12:59:56.000Z</time>
      </trkpt>
      <trkpt lat="48.57194" lon="-3.19622">
        <ele>194.8</ele>
        <time>2025-02-27T13:00:09.000Z</time>
      </trkpt>
      <trkpt lat="48.5723" lon="-3.19581">
        <ele>197.2</ele>
        <time>2025-02-27T13:00:25.000Z</time>
      </trkpt>
      <trkpt lat="48.57268" lon="-3.19547">
        <ele>198.4</ele>
        <time>2025-02-27T13:00:41.000Z</time>
      </trkpt>
      <trkpt lat="48.57308" lon="-3.19518">
        <ele>198.6</ele>
        <time>2025-02-27T13:00:57.000Z</time>
      </trkpt>
      <trkpt lat="48.57342" lon="-3.19482">
        <ele>198</ele>
        <time>2025-02-27T13:01:10.000Z</time>
      </trkpt>
      <trkpt lat="48.57351" lon="-3.19441">
        <ele>197.4</ele>
        <time>2025-02-27T13:01:17.000Z</time>
      </trkpt>
      <trkpt lat="48.57324" lon="-3.1932">
        <ele>193.8</ele>
        <time>2025-02-27T13:01:30.000Z</time>
      </trkpt>
      <trkpt lat="48.57293" lon="-3.19194">
        <ele>189.2</ele>
        <time>2025-02-27T13:01:41.000Z</time>
      </trkpt>
      <trkpt lat="48.57224" lon="-3.19077">
        <ele>187.2</ele>
        <time>2025-02-27T13:01:55.000Z</time>
      </trkpt>
      <trkpt lat="48.57203" lon="-3.19013">
        <ele>190</ele>
        <time>2025-02-27T13:02:05.000Z</time>
      </trkpt>
      <trkpt lat="48.57206" lon="-3.18941">
        <ele>191.4</ele>
        <time>2025-02-27T13:02:18.000Z</time>
      </trkpt>
      <trkpt lat="48.57232" lon="-3.18855">
        <ele>190</ele>
        <time>2025-02-27T13:02:31.000Z</time>
      </trkpt>
      <trkpt lat="48.57276" lon="-3.18809">
        <ele>190.6</ele>
        <time>2025-02-27T13:02:43.000Z</time>
      </trkpt>
      <trkpt lat="48.57344" lon="-3.18791">
        <ele>192.4</ele>
        <time>2025-02-27T13:02:59.000Z</time>
      </trkpt>
      <trkpt lat="48.57404" lon="-3.18779">
        <ele>194.6</ele>
        <time>2025-02-27T13:03:15.000Z</time>
      </trkpt>
      <trkpt lat="48.57455" lon="-3.18764">
        <ele>195.2</ele>
        <time>2025-02-27T13:03:31.000Z</time>
      </trkpt>
      <trkpt lat="48.57511" lon="-3.18739">
        <ele>195.8</ele>
        <time>2025-02-27T13:03:46.000Z</time>
      </trkpt>
      <trkpt lat="48.57573" lon="-3.187">
        <ele>195.6</ele>
        <time>2025-02-27T13:04:02.000Z</time>
      </trkpt>
      <trkpt lat="48.57634" lon="-3.18666">
        <ele>195.6</ele>
        <time>2025-02-27T13:04:19.000Z</time>
      </trkpt>
      <trkpt lat="48.57673" lon="-3.18668">
        <ele>197</ele>
        <time>2025-02-27T13:04:30.000Z</time>
      </trkpt>
      <trkpt lat="48.57705" lon="-3.18677">
        <ele>198.6</ele>
        <time>2025-02-27T13:04:41.000Z</time>
      </trkpt>
      <trkpt lat="48.57705" lon="-3.18728">
        <ele>199</ele>
        <time>2025-02-27T13:04:52.000Z</time>
      </trkpt>
      <trkpt lat="48.57704" lon="-3.18799">
        <ele>199.4</ele>
        <time>2025-02-27T13:05:08.000Z</time>
      </trkpt>
      <trkpt lat="48.57684" lon="-3.18833">
        <ele>199.4</ele>
        <time>2025-02-27T13:05:18.000Z</time>
      </trkpt>
      <trkpt lat="48.57687" lon="-3.18892">
        <ele>200.8</ele>
        <time>2025-02-27T13:05:30.000Z</time>
      </trkpt>
      <trkpt lat="48.57692" lon="-3.18945">
        <ele>202.2</ele>
        <time>2025-02-27T13:05:41.000Z</time>
      </trkpt>
      <trkpt lat="48.57688" lon="-3.18949">
        <ele>203</ele>
        <time>2025-02-27T13:05:47.000Z</time>
      </trkpt>
    </trkseg>
  </trk>
</gpx>